GEC8265 EDDF-SAEZ
Flight info
| Callsign | GEC8265 |
|---|---|
| Flight time | N/A |
| Altitude | 27000 |
| Route | ANEKI6E ANEKI Y163 HERBI/N0483F290 Y164 OLBEN DCT ONNOF DCT BELUS/N0475F280 DCT LSE/N0486F290 UY305 ESIDA DCT GAI DCT PERDU DCT KONKE Z245 CJN N10 SVL N857 KORNO/N0487F310 UN857 TERTO N857 DEREV/N0485F300 N857 BIPET/N0487F320 N857 GUNET UN857 UTRAM/N0485F340 UN857 VUPIP/N0478F360 UN857 NELOX UZ53 UMRUD UN741 PAPIX PAPIX7A |
| Aircraft | B77L/H-SDE2E3FGHIJ1J3J4J5M1P2RWXYZ/LB1D1 |
Departure
| Time | N/A |
|---|---|
| Airport | Frankfurt Main Airport (EDDF) |
Arrival
| Time | 2026-04-30 15:18 |
|---|---|
| Airport | Ezeiza International Airport - Ministro Pistarini (SAEZ) |
| Time | Latitude | Longitude | Altitude | Speed | Heading |
|---|---|---|---|---|---|
| 2026-04-30 05:56 | 20.93176 | -18.92758 | 34055 ft | 462 kts | 217° |
| 2026-04-30 05:56 | 20.90385 | -18.94461 | 34057 ft | 462 kts | 217° |
| 2026-04-30 05:56 | 20.84793 | -18.97869 | 34058 ft | 463 kts | 217° |
| 2026-04-30 05:57 | 20.79196 | -19.01278 | 34057 ft | 463 kts | 217° |
| 2026-04-30 05:57 | 20.73600 | -19.04684 | 34058 ft | 463 kts | 217° |
| 2026-04-30 05:58 | 20.67996 | -19.08091 | 34038 ft | 463 kts | 217° |
| 2026-04-30 05:58 | 20.62388 | -19.11498 | 34055 ft | 464 kts | 217° |
| 2026-04-30 05:59 | 20.56763 | -19.14913 | 34057 ft | 466 kts | 217° |
| 2026-04-30 05:59 | 20.51118 | -19.18337 | 34061 ft | 468 kts | 217° |
| 2026-04-30 06:00 | 20.45491 | -19.21746 | 34061 ft | 469 kts | 217° |
| 2026-04-30 06:00 | 20.39809 | -19.25186 | 34061 ft | 470 kts | 217° |
| 2026-04-30 06:01 | 20.34121 | -19.28626 | 34058 ft | 470 kts | 217° |
| 2026-04-30 06:01 | 20.28426 | -19.32067 | 34056 ft | 470 kts | 217° |
| 2026-04-30 06:02 | 20.22736 | -19.35502 | 34054 ft | 470 kts | 217° |
| 2026-04-30 06:02 | 20.17053 | -19.38931 | 34057 ft | 469 kts | 217° |
| 2026-04-30 06:03 | 20.11379 | -19.42352 | 34057 ft | 468 kts | 217° |
| 2026-04-30 06:03 | 20.05714 | -19.45764 | 34057 ft | 468 kts | 217° |
| 2026-04-30 06:04 | 20.00047 | -19.49175 | 34051 ft | 468 kts | 217° |
| 2026-04-30 06:05 | 19.91532 | -19.54295 | 34052 ft | 470 kts | 217° |
| 2026-04-30 06:05 | 19.85873 | -19.57695 | 34057 ft | 471 kts | 217° |
| 2026-04-30 06:06 | 19.80121 | -19.61147 | 34058 ft | 472 kts | 217° |
| 2026-04-30 06:06 | 19.74397 | -19.64579 | 34056 ft | 473 kts | 217° |
| 2026-04-30 06:07 | 19.68662 | -19.68015 | 34034 ft | 473 kts | 217° |
| 2026-04-30 06:07 | 19.62969 | -19.71423 | 34052 ft | 473 kts | 217° |
| 2026-04-30 06:08 | 19.57229 | -19.74856 | 34070 ft | 474 kts | 217° |
| 2026-04-30 06:08 | 19.51488 | -19.78286 | 34053 ft | 474 kts | 217° |
| 2026-04-30 06:09 | 19.45744 | -19.81715 | 34046 ft | 474 kts | 217° |
| 2026-04-30 06:09 | 19.39994 | -19.85147 | 34046 ft | 474 kts | 217° |
| 2026-04-30 06:10 | 19.34245 | -19.88576 | 34039 ft | 474 kts | 217° |
| 2026-04-30 06:10 | 19.28493 | -19.92002 | 34051 ft | 474 kts | 217° |
| 2026-04-30 06:11 | 19.22740 | -19.95427 | 34055 ft | 474 kts | 217° |
| 2026-04-30 06:11 | 19.16988 | -19.98849 | 34053 ft | 474 kts | 217° |
| 2026-04-30 06:12 | 19.11235 | -20.02269 | 34053 ft | 474 kts | 217° |
| 2026-04-30 06:12 | 19.05482 | -20.05685 | 34052 ft | 474 kts | 217° |
| 2026-04-30 06:13 | 18.99725 | -20.09102 | 34025 ft | 474 kts | 217° |
| 2026-04-30 06:13 | 18.93979 | -20.12508 | 34044 ft | 473 kts | 217° |
| 2026-04-30 06:14 | 18.88282 | -20.15884 | 34051 ft | 473 kts | 217° |
| 2026-04-30 06:14 | 18.82546 | -20.19280 | 34056 ft | 473 kts | 217° |
| 2026-04-30 06:15 | 18.76811 | -20.22673 | 34052 ft | 473 kts | 216° |
| 2026-04-30 06:15 | 18.71074 | -20.26065 | 34055 ft | 473 kts | 216° |
| 2026-04-30 06:16 | 18.65335 | -20.29454 | 34032 ft | 473 kts | 216° |
| 2026-04-30 06:16 | 18.59598 | -20.32839 | 34045 ft | 472 kts | 216° |
| 2026-04-30 06:17 | 18.53869 | -20.36218 | 34052 ft | 472 kts | 216° |
| 2026-04-30 06:17 | 18.48143 | -20.39592 | 34054 ft | 472 kts | 216° |
| 2026-04-30 06:18 | 18.42418 | -20.42963 | 34055 ft | 471 kts | 216° |
| 2026-04-30 06:18 | 18.36692 | -20.46332 | 34061 ft | 471 kts | 216° |
| 2026-04-30 06:19 | 18.30962 | -20.49701 | 34031 ft | 472 kts | 216° |
| 2026-04-30 06:19 | 18.25236 | -20.53065 | 34054 ft | 472 kts | 216° |
| 2026-04-30 06:20 | 18.19505 | -20.56429 | 34057 ft | 472 kts | 216° |
| 2026-04-30 06:20 | 18.13769 | -20.59794 | 34058 ft | 472 kts | 216° |
| 2026-04-30 06:21 | 18.08028 | -20.63158 | 34051 ft | 473 kts | 216° |
| 2026-04-30 06:21 | 18.02280 | -20.66525 | 34052 ft | 473 kts | 216° |
| 2026-04-30 06:22 | 17.96532 | -20.69888 | 34036 ft | 473 kts | 215° |
| 2026-04-30 06:22 | 17.90783 | -20.73251 | 34048 ft | 473 kts | 215° |
| 2026-04-30 06:23 | 17.85071 | -20.76588 | 34058 ft | 473 kts | 215° |
| 2026-04-30 06:23 | 17.79318 | -20.79948 | 34055 ft | 474 kts | 215° |
| 2026-04-30 06:24 | 17.73559 | -20.83308 | 34050 ft | 474 kts | 215° |
| 2026-04-30 06:24 | 17.67792 | -20.86670 | 34052 ft | 474 kts | 215° |
| 2026-04-30 06:25 | 17.62025 | -20.90030 | 34040 ft | 474 kts | 215° |
| 2026-04-30 06:25 | 17.56253 | -20.93391 | 34048 ft | 475 kts | 215° |
| 2026-04-30 06:26 | 17.50479 | -20.96749 | 34049 ft | 475 kts | 214° |
| 2026-04-30 06:26 | 17.44702 | -21.00108 | 34052 ft | 475 kts | 214° |
| 2026-04-30 06:27 | 17.38921 | -21.03466 | 34055 ft | 475 kts | 214° |
| 2026-04-30 06:27 | 17.33136 | -21.06824 | 34051 ft | 475 kts | 214° |
| 2026-04-30 06:28 | 17.27355 | -21.10177 | 34051 ft | 475 kts | 214° |
| 2026-04-30 06:28 | 17.21570 | -21.13531 | 34048 ft | 475 kts | 214° |
| 2026-04-30 06:29 | 17.15817 | -21.16863 | 34051 ft | 476 kts | 214° |
| 2026-04-30 06:29 | 17.10025 | -21.20216 | 34054 ft | 476 kts | 214° |
| 2026-04-30 06:30 | 17.04219 | -21.23574 | 34047 ft | 477 kts | 214° |
| 2026-04-30 06:30 | 16.98412 | -21.26931 | 34050 ft | 477 kts | 214° |
| 2026-04-30 06:31 | 16.92600 | -21.30287 | 34050 ft | 477 kts | 214° |
| 2026-04-30 06:31 | 16.86787 | -21.33642 | 34049 ft | 477 kts | 214° |
| 2026-04-30 06:32 | 16.80976 | -21.36993 | 34044 ft | 477 kts | 214° |
| 2026-04-30 06:32 | 16.75163 | -21.40344 | 34048 ft | 477 kts | 214° |
| 2026-04-30 06:33 | 16.69349 | -21.43692 | 34047 ft | 477 kts | 214° |
| 2026-04-30 06:33 | 16.63541 | -21.47035 | 34046 ft | 477 kts | 214° |
| 2026-04-30 06:34 | 16.57730 | -21.50378 | 34035 ft | 477 kts | 214° |
| 2026-04-30 06:34 | 16.51959 | -21.53694 | 34047 ft | 477 kts | 214° |
| 2026-04-30 06:35 | 16.46147 | -21.57033 | 34046 ft | 477 kts | 214° |
| 2026-04-30 06:35 | 16.40325 | -21.60374 | 34047 ft | 478 kts | 214° |
| 2026-04-30 06:36 | 16.34501 | -21.63715 | 34037 ft | 478 kts | 214° |
| 2026-04-30 06:36 | 16.28670 | -21.67057 | 34041 ft | 478 kts | 214° |
| 2026-04-30 06:37 | 16.22838 | -21.70397 | 34027 ft | 479 kts | 213° |
| 2026-04-30 06:37 | 16.17004 | -21.73737 | 34039 ft | 479 kts | 213° |
| 2026-04-30 06:38 | 16.11169 | -21.77075 | 34045 ft | 479 kts | 213° |
| 2026-04-30 06:38 | 16.05330 | -21.80413 | 34046 ft | 479 kts | 213° |
| 2026-04-30 06:39 | 15.99482 | -21.83755 | 34042 ft | 480 kts | 213° |
| 2026-04-30 06:39 | 15.93633 | -21.87093 | 34041 ft | 480 kts | 213° |
| 2026-04-30 06:40 | 15.87778 | -21.90430 | 34023 ft | 480 kts | 213° |
| 2026-04-30 06:40 | 15.81922 | -21.93763 | 34035 ft | 480 kts | 213° |
| 2026-04-30 06:41 | 15.76069 | -21.97094 | 34039 ft | 480 kts | 213° |
| 2026-04-30 06:41 | 15.71205 | -21.99861 | 34037 ft | 480 kts | 213° |
| 2026-04-30 06:42 | 15.65348 | -22.03191 | 34038 ft | 480 kts | 213° |
| 2026-04-30 06:42 | 15.59494 | -22.06518 | 34038 ft | 480 kts | 213° |
| 2026-04-30 06:43 | 15.53635 | -22.09845 | 34038 ft | 480 kts | 213° |
| 2026-04-30 06:43 | 15.47781 | -22.13167 | 34038 ft | 479 kts | 212° |
| 2026-04-30 06:44 | 15.41933 | -22.16483 | 34039 ft | 479 kts | 212° |
| 2026-04-30 06:44 | 15.36088 | -22.19795 | 34038 ft | 479 kts | 212° |
| 2026-04-30 06:45 | 15.30287 | -22.23081 | 34036 ft | 478 kts | 212° |
| 2026-04-30 06:45 | 15.24444 | -22.26388 | 34039 ft | 478 kts | 212° |
| 2026-04-30 06:46 | 15.18605 | -22.29691 | 34038 ft | 478 kts | 212° |
| 2026-04-30 06:46 | 15.12763 | -22.32993 | 34034 ft | 478 kts | 212° |
| 2026-04-30 06:47 | 15.06925 | -22.36291 | 34036 ft | 478 kts | 212° |
| 2026-04-30 06:47 | 15.01080 | -22.39591 | 34032 ft | 478 kts | 212° |
| 2026-04-30 06:48 | 14.95236 | -22.42888 | 34033 ft | 479 kts | 212° |
| 2026-04-30 06:48 | 14.89391 | -22.46184 | 34029 ft | 479 kts | 212° |
| 2026-04-30 06:49 | 14.83538 | -22.49483 | 34031 ft | 479 kts | 212° |
| 2026-04-30 06:49 | 14.77687 | -22.52778 | 34030 ft | 479 kts | 212° |
| 2026-04-30 06:50 | 14.71830 | -22.56074 | 34030 ft | 479 kts | 212° |
| 2026-04-30 06:50 | 14.65970 | -22.59370 | 34033 ft | 480 kts | 212° |
| 2026-04-30 06:51 | 14.60107 | -22.62665 | 34033 ft | 480 kts | 212° |
| 2026-04-30 06:51 | 14.54243 | -22.65960 | 34032 ft | 480 kts | 212° |
| 2026-04-30 06:52 | 14.48377 | -22.69253 | 34024 ft | 480 kts | 212° |
| 2026-04-30 06:52 | 14.42510 | -22.72545 | 34029 ft | 480 kts | 212° |
| 2026-04-30 06:53 | 14.36681 | -22.75814 | 34034 ft | 480 kts | 212° |
| 2026-04-30 06:53 | 14.30808 | -22.79105 | 34027 ft | 481 kts | 212° |
| 2026-04-30 06:54 | 14.24929 | -22.82398 | 34033 ft | 481 kts | 212° |
| 2026-04-30 06:54 | 14.19050 | -22.85689 | 34029 ft | 481 kts | 212° |
| 2026-04-30 06:55 | 14.13164 | -22.88981 | 34027 ft | 481 kts | 211° |
| 2026-04-30 06:55 | 14.07278 | -22.92272 | 34030 ft | 482 kts | 211° |
| 2026-04-30 06:56 | 14.01384 | -22.95566 | 34027 ft | 482 kts | 211° |
| 2026-04-30 06:56 | 13.95487 | -22.98859 | 34031 ft | 482 kts | 211° |
| 2026-04-30 06:57 | 13.89590 | -23.02150 | 34027 ft | 482 kts | 211° |
| 2026-04-30 06:57 | 13.83687 | -23.05442 | 34028 ft | 482 kts | 211° |
| 2026-04-30 06:58 | 13.77784 | -23.08733 | 34024 ft | 482 kts | 211° |
| 2026-04-30 06:58 | 13.71885 | -23.12020 | 34026 ft | 482 kts | 211° |
| 2026-04-30 06:59 | 13.65981 | -23.15308 | 34027 ft | 482 kts | 211° |
| 2026-04-30 06:59 | 13.60076 | -23.18594 | 34027 ft | 483 kts | 211° |
| 2026-04-30 07:00 | 13.54172 | -23.21879 | 34027 ft | 483 kts | 211° |
| 2026-04-30 07:00 | 13.48269 | -23.25160 | 34039 ft | 482 kts | 211° |
| 2026-04-30 07:01 | 13.42361 | -23.28441 | 34028 ft | 483 kts | 211° |
| 2026-04-30 07:01 | 13.36453 | -23.31721 | 34026 ft | 483 kts | 211° |
| 2026-04-30 07:02 | 13.30548 | -23.34998 | 34027 ft | 483 kts | 211° |
| 2026-04-30 07:02 | 13.24680 | -23.38253 | 34027 ft | 483 kts | 211° |
| 2026-04-30 07:03 | 13.18733 | -23.41551 | 34027 ft | 483 kts | 211° |
| 2026-04-30 07:03 | 13.12868 | -23.44801 | 34026 ft | 483 kts | 211° |
| 2026-04-30 07:04 | 13.06958 | -23.48074 | 34019 ft | 482 kts | 211° |
| 2026-04-30 07:04 | 13.01057 | -23.51340 | 34018 ft | 482 kts | 211° |
| 2026-04-30 07:05 | 12.92212 | -23.56233 | 34014 ft | 481 kts | 211° |
| 2026-04-30 07:05 | 12.86319 | -23.59490 | 34015 ft | 481 kts | 211° |
| 2026-04-30 07:06 | 12.80433 | -23.62742 | 34018 ft | 481 kts | 211° |
| 2026-04-30 07:06 | 12.74543 | -23.65995 | 34029 ft | 481 kts | 211° |
| 2026-04-30 07:07 | 12.68659 | -23.69243 | 34025 ft | 480 kts | 211° |
| 2026-04-30 07:07 | 12.62776 | -23.72487 | 34015 ft | 480 kts | 211° |
| 2026-04-30 07:08 | 12.56888 | -23.75734 | 34023 ft | 481 kts | 211° |
| 2026-04-30 07:08 | 12.51004 | -23.78976 | 34029 ft | 480 kts | 211° |
| 2026-04-30 07:09 | 12.45115 | -23.82219 | 34018 ft | 480 kts | 211° |
| 2026-04-30 07:09 | 12.39228 | -23.85460 | 34029 ft | 480 kts | 211° |
| 2026-04-30 07:10 | 12.33380 | -23.88677 | 34016 ft | 480 kts | 211° |
| 2026-04-30 07:10 | 12.27496 | -23.91913 | 34012 ft | 480 kts | 211° |
| 2026-04-30 07:11 | 12.21606 | -23.95150 | 34021 ft | 481 kts | 211° |
| 2026-04-30 07:11 | 12.15715 | -23.98386 | 34023 ft | 481 kts | 210° |
| 2026-04-30 07:12 | 12.09825 | -24.01620 | 34023 ft | 481 kts | 210° |
| 2026-04-30 07:12 | 12.03929 | -24.04855 | 34021 ft | 481 kts | 210° |
| 2026-04-30 07:13 | 11.98033 | -24.08089 | 34018 ft | 481 kts | 210° |
| 2026-04-30 07:13 | 11.92129 | -24.11326 | 34020 ft | 482 kts | 210° |
| 2026-04-30 07:14 | 11.86222 | -24.14563 | 34025 ft | 482 kts | 210° |
| 2026-04-30 07:14 | 11.80306 | -24.17803 | 34022 ft | 483 kts | 210° |
| 2026-04-30 07:15 | 11.74383 | -24.21045 | 34023 ft | 483 kts | 210° |
| 2026-04-30 07:15 | 11.68462 | -24.24285 | 34025 ft | 483 kts | 210° |
| 2026-04-30 07:16 | 11.62533 | -24.27527 | 34015 ft | 483 kts | 210° |
| 2026-04-30 07:16 | 11.56605 | -24.30767 | 34023 ft | 484 kts | 210° |
| 2026-04-30 07:17 | 11.50667 | -24.34012 | 34020 ft | 484 kts | 210° |
| 2026-04-30 07:18 | 11.41802 | -24.38852 | 34018 ft | 484 kts | 210° |
| 2026-04-30 07:18 | 11.35824 | -24.42114 | 34013 ft | 484 kts | 210° |
| 2026-04-30 07:19 | 11.29925 | -24.45331 | 34009 ft | 484 kts | 210° |
| 2026-04-30 07:19 | 11.23988 | -24.48568 | 34011 ft | 484 kts | 210° |
| 2026-04-30 07:20 | 11.18047 | -24.51806 | 34017 ft | 484 kts | 210° |
| 2026-04-30 07:20 | 11.12108 | -24.55041 | 34017 ft | 484 kts | 210° |
| 2026-04-30 07:21 | 11.06160 | -24.58278 | 34015 ft | 485 kts | 210° |
| 2026-04-30 07:21 | 11.00215 | -24.61514 | 34015 ft | 485 kts | 210° |
| 2026-04-30 07:22 | 10.91294 | -24.66365 | 34010 ft | 485 kts | 210° |
| 2026-04-30 07:22 | 10.85344 | -24.69599 | 34012 ft | 485 kts | 210° |
| 2026-04-30 07:23 | 10.79399 | -24.72829 | 34012 ft | 485 kts | 210° |
| 2026-04-30 07:23 | 10.73450 | -24.76060 | 34010 ft | 484 kts | 210° |
| 2026-04-30 07:24 | 10.67507 | -24.79285 | 34005 ft | 484 kts | 210° |
| 2026-04-30 07:24 | 10.61561 | -24.82511 | 34003 ft | 484 kts | 210° |
| 2026-04-30 07:25 | 10.55652 | -24.85716 | 34010 ft | 485 kts | 210° |
| 2026-04-30 07:25 | 10.49698 | -24.88943 | 34012 ft | 485 kts | 210° |
| 2026-04-30 07:26 | 10.43737 | -24.92173 | 34010 ft | 486 kts | 210° |
| 2026-04-30 07:26 | 10.37774 | -24.95403 | 34001 ft | 486 kts | 210° |
| 2026-04-30 07:27 | 10.31803 | -24.98636 | 34004 ft | 486 kts | 210° |
| 2026-04-30 07:27 | 10.25828 | -25.01869 | 34005 ft | 486 kts | 210° |
| 2026-04-30 07:28 | 10.19854 | -25.05100 | 34009 ft | 487 kts | 210° |
| 2026-04-30 07:28 | 10.13879 | -25.08331 | 34001 ft | 487 kts | 210° |
| 2026-04-30 07:29 | 10.07907 | -25.11559 | 34006 ft | 486 kts | 210° |
| 2026-04-30 07:29 | 10.01933 | -25.14787 | 34006 ft | 486 kts | 210° |
| 2026-04-30 07:30 | 9.92973 | -25.19625 | 34006 ft | 486 kts | 210° |
| 2026-04-30 07:31 | 9.87001 | -25.22848 | 34005 ft | 486 kts | 210° |
| 2026-04-30 07:31 | 9.82039 | -25.25524 | 33996 ft | 486 kts | 210° |
| 2026-04-30 07:32 | 9.76067 | -25.28746 | 34000 ft | 486 kts | 210° |
| 2026-04-30 07:32 | 9.70095 | -25.31967 | 34001 ft | 486 kts | 210° |
| 2026-04-30 07:33 | 9.63158 | -25.35707 | 33992 ft | 486 kts | 210° |
| 2026-04-30 07:33 | 9.58157 | -25.38402 | 33998 ft | 486 kts | 210° |
| 2026-04-30 07:34 | 9.52189 | -25.41618 | 34001 ft | 486 kts | 210° |
| 2026-04-30 07:34 | 9.46217 | -25.44834 | 34000 ft | 486 kts | 210° |
| 2026-04-30 07:35 | 9.40244 | -25.48048 | 33991 ft | 486 kts | 210° |
| 2026-04-30 07:35 | 9.34275 | -25.51260 | 33996 ft | 486 kts | 210° |
| 2026-04-30 07:36 | 9.28300 | -25.54474 | 33991 ft | 486 kts | 210° |
| 2026-04-30 07:36 | 9.22328 | -25.57685 | 33994 ft | 486 kts | 210° |
| 2026-04-30 07:37 | 9.16390 | -25.60876 | 33996 ft | 486 kts | 210° |
| 2026-04-30 07:37 | 9.10410 | -25.64089 | 33993 ft | 487 kts | 210° |
| 2026-04-30 07:38 | 9.04388 | -25.67323 | 33995 ft | 487 kts | 210° |
| 2026-04-30 07:38 | 8.98437 | -25.70518 | 33992 ft | 487 kts | 210° |
| 2026-04-30 07:39 | 8.92448 | -25.73732 | 33988 ft | 487 kts | 210° |
| 2026-04-30 07:39 | 8.86461 | -25.76943 | 33989 ft | 487 kts | 210° |
| 2026-04-30 07:40 | 8.80471 | -25.80156 | 33985 ft | 487 kts | 209° |
| 2026-04-30 07:40 | 8.74488 | -25.83363 | 33990 ft | 487 kts | 210° |
| 2026-04-30 07:41 | 8.68509 | -25.86567 | 33986 ft | 487 kts | 209° |
| 2026-04-30 07:41 | 8.62524 | -25.89773 | 33985 ft | 486 kts | 209° |
| 2026-04-30 07:42 | 8.56546 | -25.92974 | 33983 ft | 486 kts | 209° |
| 2026-04-30 07:42 | 8.50568 | -25.96174 | 33985 ft | 486 kts | 209° |
| 2026-04-30 07:43 | 8.44599 | -25.99368 | 33982 ft | 485 kts | 209° |
| 2026-04-30 07:43 | 8.38635 | -26.02559 | 33984 ft | 484 kts | 209° |
| 2026-04-30 07:44 | 8.32685 | -26.05741 | 33982 ft | 484 kts | 209° |
| 2026-04-30 07:44 | 8.26738 | -26.08914 | 33977 ft | 483 kts | 209° |
| 2026-04-30 07:45 | 8.20793 | -26.12085 | 33978 ft | 483 kts | 209° |
| 2026-04-30 07:45 | 8.14842 | -26.15259 | 33980 ft | 483 kts | 210° |
| 2026-04-30 07:46 | 8.08897 | -26.18430 | 33983 ft | 483 kts | 209° |
| 2026-04-30 07:46 | 8.02946 | -26.21603 | 33978 ft | 484 kts | 210° |
| 2026-04-30 07:47 | 7.96999 | -26.24773 | 33973 ft | 484 kts | 209° |
| 2026-04-30 07:47 | 7.91049 | -26.27943 | 33975 ft | 483 kts | 208° |
| 2026-04-30 07:48 | 7.85108 | -26.31107 | 33983 ft | 482 kts | 209° |
| 2026-04-30 07:48 | 7.79176 | -26.34266 | 33982 ft | 481 kts | 209° |
| 2026-04-30 07:49 | 7.73261 | -26.37414 | 33971 ft | 481 kts | 209° |
| 2026-04-30 07:49 | 7.67346 | -26.40562 | 33967 ft | 481 kts | 208° |
| 2026-04-30 07:50 | 7.61430 | -26.43709 | 33968 ft | 481 kts | 208° |
| 2026-04-30 07:50 | 7.55506 | -26.46860 | 33974 ft | 481 kts | 208° |
| 2026-04-30 07:51 | 7.49576 | -26.50012 | 33975 ft | 482 kts | 209° |
| 2026-04-30 07:51 | 7.43685 | -26.53143 | 33962 ft | 482 kts | 208° |
| 2026-04-30 07:52 | 7.37763 | -26.56290 | 33964 ft | 481 kts | 208° |
| 2026-04-30 07:52 | 7.31848 | -26.59431 | 33968 ft | 479 kts | 208° |
| 2026-04-30 07:53 | 7.25956 | -26.62559 | 33969 ft | 478 kts | 208° |
| 2026-04-30 07:53 | 7.20070 | -26.65684 | 33966 ft | 478 kts | 208° |
| 2026-04-30 07:54 | 7.14184 | -26.68809 | 33962 ft | 479 kts | 208° |
| 2026-04-30 07:54 | 7.08294 | -26.71933 | 33960 ft | 479 kts | 208° |
| 2026-04-30 07:55 | 7.02397 | -26.75060 | 33963 ft | 479 kts | 208° |
| 2026-04-30 07:55 | 6.96504 | -26.78185 | 33963 ft | 479 kts | 208° |
| 2026-04-30 07:56 | 6.90612 | -26.81308 | 33959 ft | 478 kts | 208° |
| 2026-04-30 07:56 | 6.84722 | -26.84429 | 33960 ft | 478 kts | 208° |
| 2026-04-30 07:57 | 6.78838 | -26.87546 | 33970 ft | 478 kts | 208° |
| 2026-04-30 07:57 | 6.72947 | -26.90667 | 33962 ft | 478 kts | 208° |
| 2026-04-30 07:58 | 6.67058 | -26.93785 | 33958 ft | 478 kts | 208° |
| 2026-04-30 07:58 | 6.61179 | -26.96897 | 33955 ft | 478 kts | 208° |
| 2026-04-30 07:59 | 6.55301 | -27.00008 | 33956 ft | 477 kts | 208° |
| 2026-04-30 07:59 | 6.49426 | -27.03117 | 33954 ft | 477 kts | 208° |
| 2026-04-30 08:00 | 6.40602 | -27.07783 | 33952 ft | 477 kts | 207° |
| 2026-04-30 08:00 | 6.34757 | -27.10870 | 33960 ft | 477 kts | 207° |
| 2026-04-30 08:01 | 6.28880 | -27.13973 | 33957 ft | 477 kts | 207° |
| 2026-04-30 08:01 | 6.23006 | -27.17076 | 33950 ft | 478 kts | 207° |
| 2026-04-30 08:02 | 6.14182 | -27.21735 | 33949 ft | 478 kts | 208° |
| 2026-04-30 08:03 | 6.02411 | -27.27949 | 33950 ft | 477 kts | 207° |
| 2026-04-30 08:04 | 5.96531 | -27.31051 | 33948 ft | 477 kts | 207° |
| 2026-04-30 08:04 | 5.90693 | -27.34131 | 33947 ft | 477 kts | 207° |
| 2026-04-30 08:05 | 5.84819 | -27.37229 | 33948 ft | 477 kts | 207° |
| 2026-04-30 08:05 | 5.78944 | -27.40326 | 33947 ft | 477 kts | 207° |
| 2026-04-30 08:06 | 5.73068 | -27.43423 | 33949 ft | 477 kts | 207° |
| 2026-04-30 08:06 | 5.67182 | -27.46525 | 33950 ft | 478 kts | 207° |
| 2026-04-30 08:07 | 5.61291 | -27.49629 | 33946 ft | 478 kts | 207° |
| 2026-04-30 08:07 | 5.55398 | -27.52733 | 33940 ft | 479 kts | 207° |
| 2026-04-30 08:08 | 5.49503 | -27.55837 | 33939 ft | 478 kts | 207° |
| 2026-04-30 08:08 | 5.43612 | -27.58939 | 33948 ft | 478 kts | 207° |
| 2026-04-30 08:09 | 5.37723 | -27.62039 | 33943 ft | 478 kts | 207° |
| 2026-04-30 08:09 | 5.31840 | -27.65135 | 33935 ft | 477 kts | 207° |
| 2026-04-30 08:10 | 5.25961 | -27.68228 | 33937 ft | 477 kts | 207° |
| 2026-04-30 08:10 | 5.20083 | -27.71320 | 33944 ft | 477 kts | 207° |
| 2026-04-30 08:11 | 5.14208 | -27.74410 | 33944 ft | 477 kts | 207° |
| 2026-04-30 08:11 | 5.08329 | -27.77502 | 33940 ft | 477 kts | 207° |
| 2026-04-30 08:12 | 5.02440 | -27.80598 | 33936 ft | 478 kts | 207° |
| 2026-04-30 08:12 | 4.96582 | -27.83677 | 33941 ft | 479 kts | 207° |
| 2026-04-30 08:13 | 4.90684 | -27.86775 | 33939 ft | 479 kts | 207° |
| 2026-04-30 08:13 | 4.84785 | -27.89874 | 33938 ft | 479 kts | 207° |
| 2026-04-30 08:14 | 4.78889 | -27.92972 | 33931 ft | 479 kts | 207° |
| 2026-04-30 08:14 | 4.72994 | -27.96068 | 33937 ft | 478 kts | 207° |
| 2026-04-30 08:15 | 4.67102 | -27.99162 | 33941 ft | 478 kts | 207° |
| 2026-04-30 08:15 | 4.61199 | -28.02261 | 33941 ft | 479 kts | 207° |
| 2026-04-30 08:16 | 4.55287 | -28.05364 | 33938 ft | 480 kts | 207° |
| 2026-04-30 08:16 | 4.49375 | -28.08467 | 33939 ft | 480 kts | 207° |
| 2026-04-30 08:17 | 4.43500 | -28.11549 | 33940 ft | 479 kts | 207° |
| 2026-04-30 08:17 | 4.37553 | -28.14669 | 33937 ft | 479 kts | 207° |
| 2026-04-30 08:18 | 4.31689 | -28.17745 | 33932 ft | 479 kts | 207° |
| 2026-04-30 08:18 | 4.25784 | -28.20841 | 33937 ft | 479 kts | 207° |
| 2026-04-30 08:19 | 4.19869 | -28.23943 | 33939 ft | 480 kts | 207° |
| 2026-04-30 08:19 | 4.13954 | -28.27043 | 33942 ft | 480 kts | 207° |
| 2026-04-30 08:20 | 4.08033 | -28.30147 | 33935 ft | 480 kts | 207° |
| 2026-04-30 08:20 | 4.03073 | -28.32746 | 33938 ft | 480 kts | 207° |
| 2026-04-30 08:21 | 3.97156 | -28.35846 | 33939 ft | 480 kts | 207° |
| 2026-04-30 08:21 | 3.91241 | -28.38946 | 33939 ft | 480 kts | 207° |
| 2026-04-30 08:22 | 3.85330 | -28.42042 | 33934 ft | 480 kts | 207° |
| 2026-04-30 08:22 | 3.79413 | -28.45141 | 33934 ft | 480 kts | 207° |
| 2026-04-30 08:23 | 3.73645 | -28.48161 | 33938 ft | 480 kts | 207° |
| 2026-04-30 08:23 | 3.67728 | -28.51259 | 33939 ft | 480 kts | 207° |
| 2026-04-30 08:24 | 3.61806 | -28.54359 | 33935 ft | 480 kts | 207° |
| 2026-04-30 08:24 | 3.55885 | -28.57458 | 33933 ft | 480 kts | 207° |
| 2026-04-30 08:25 | 3.49963 | -28.60558 | 33934 ft | 480 kts | 207° |
| 2026-04-30 08:25 | 3.44037 | -28.63659 | 33935 ft | 480 kts | 207° |
| 2026-04-30 08:26 | 3.38114 | -28.66757 | 34294 ft | 479 kts | 207° |
| 2026-04-30 08:26 | 3.35172 | -28.68296 | 34751 ft | 475 kts | 208° |
| 2026-04-30 08:26 | 3.32279 | -28.69810 | 35033 ft | 476 kts | 208° |
| 2026-04-30 08:26 | 3.29345 | -28.71344 | 35340 ft | 475 kts | 208° |
| 2026-04-30 08:27 | 3.26420 | -28.72874 | 35661 ft | 475 kts | 208° |
| 2026-04-30 08:27 | 3.23484 | -28.74411 | 35814 ft | 477 kts | 209° |
| 2026-04-30 08:27 | 3.20535 | -28.75953 | 35854 ft | 478 kts | 208° |
| 2026-04-30 08:28 | 3.14637 | -28.79038 | 35924 ft | 478 kts | 208° |
| 2026-04-30 08:28 | 3.08758 | -28.82115 | 35926 ft | 476 kts | 208° |
| 2026-04-30 08:29 | 3.02908 | -28.85186 | 35927 ft | 474 kts | 208° |
| 2026-04-30 08:29 | 2.97067 | -28.88253 | 35932 ft | 474 kts | 209° |
| 2026-04-30 08:30 | 2.91231 | -28.91317 | 35929 ft | 474 kts | 208° |
| 2026-04-30 08:30 | 2.85383 | -28.94386 | 35930 ft | 475 kts | 208° |
| 2026-04-30 08:31 | 2.79529 | -28.97457 | 35939 ft | 476 kts | 209° |
| 2026-04-30 08:31 | 2.73661 | -29.00536 | 35935 ft | 476 kts | 209° |
| 2026-04-30 08:32 | 2.67790 | -29.03616 | 35929 ft | 477 kts | 208° |
| 2026-04-30 08:32 | 2.61915 | -29.06697 | 35927 ft | 477 kts | 208° |
| 2026-04-30 08:33 | 2.56044 | -29.09776 | 35932 ft | 476 kts | 209° |
| 2026-04-30 08:33 | 2.50172 | -29.12855 | 35934 ft | 476 kts | 208° |
| 2026-04-30 08:34 | 2.44344 | -29.15912 | 35926 ft | 476 kts | 208° |
| 2026-04-30 08:34 | 2.38442 | -29.19006 | 35923 ft | 476 kts | 208° |
| 2026-04-30 08:35 | 2.32619 | -29.22059 | 35931 ft | 476 kts | 208° |
| 2026-04-30 08:35 | 2.26751 | -29.25135 | 35934 ft | 476 kts | 208° |
| 2026-04-30 08:36 | 2.20883 | -29.28211 | 35932 ft | 476 kts | 208° |
| 2026-04-30 08:36 | 2.15021 | -29.31283 | 35921 ft | 476 kts | 208° |
| 2026-04-30 08:37 | 2.09159 | -29.34355 | 35925 ft | 475 kts | 208° |
| 2026-04-30 08:37 | 2.03302 | -29.37424 | 35929 ft | 475 kts | 208° |
| 2026-04-30 08:38 | 1.97447 | -29.40493 | 35924 ft | 475 kts | 207° |
| 2026-04-30 08:38 | 1.91596 | -29.43558 | 35920 ft | 476 kts | 207° |
| 2026-04-30 08:39 | 1.85734 | -29.46629 | 35928 ft | 476 kts | 207° |
| 2026-04-30 08:39 | 1.79872 | -29.49700 | 35930 ft | 476 kts | 207° |
| 2026-04-30 08:40 | 1.74006 | -29.52773 | 35923 ft | 476 kts | 207° |
| 2026-04-30 08:40 | 1.68138 | -29.55846 | 35918 ft | 476 kts | 207° |
| 2026-04-30 08:41 | 1.62275 | -29.58917 | 35925 ft | 476 kts | 208° |
| 2026-04-30 08:41 | 1.56409 | -29.61990 | 35928 ft | 476 kts | 208° |
| 2026-04-30 08:42 | 1.50584 | -29.65041 | 35925 ft | 476 kts | 207° |
| 2026-04-30 08:42 | 1.44722 | -29.68112 | 35917 ft | 476 kts | 207° |
| 2026-04-30 08:43 | 1.38856 | -29.71183 | 35920 ft | 476 kts | 207° |
| 2026-04-30 08:43 | 1.32977 | -29.74233 | 35925 ft | 476 kts | 207° |
| 2026-04-30 08:44 | 1.27091 | -29.77273 | 35921 ft | 476 kts | 207° |
| 2026-04-30 08:44 | 1.21210 | -29.80314 | 35922 ft | 476 kts | 207° |
| 2026-04-30 08:45 | 1.15323 | -29.83360 | 35919 ft | 476 kts | 207° |
| 2026-04-30 08:45 | 1.09438 | -29.86407 | 35926 ft | 476 kts | 207° |
| 2026-04-30 08:46 | 1.03547 | -29.89457 | 35915 ft | 477 kts | 207° |
| 2026-04-30 08:46 | 0.97653 | -29.92508 | 35915 ft | 477 kts | 208° |
| 2026-04-30 08:47 | 0.91757 | -29.95560 | 35926 ft | 477 kts | 208° |
| 2026-04-30 08:47 | 0.85902 | -29.98591 | 35928 ft | 477 kts | 208° |
| 2026-04-30 08:48 | 0.80003 | -30.01644 | 35918 ft | 477 kts | 208° |
| 2026-04-30 08:48 | 0.74103 | -30.04698 | 35915 ft | 477 kts | 208° |
| 2026-04-30 08:49 | 0.68207 | -30.07749 | 35927 ft | 477 kts | 208° |
| 2026-04-30 08:49 | 0.62308 | -30.10802 | 35920 ft | 477 kts | 208° |
| 2026-04-30 08:50 | 0.56409 | -30.13855 | 35916 ft | 477 kts | 207° |
| 2026-04-30 08:50 | 0.50513 | -30.16907 | 35915 ft | 477 kts | 207° |
| 2026-04-30 08:51 | 0.44613 | -30.19960 | 35921 ft | 477 kts | 208° |
| 2026-04-30 08:51 | 0.38714 | -30.23013 | 35922 ft | 477 kts | 208° |
| 2026-04-30 08:52 | 0.32819 | -30.26064 | 35920 ft | 477 kts | 207° |
| 2026-04-30 08:52 | 0.26921 | -30.29118 | 35922 ft | 477 kts | 207° |
| 2026-04-30 08:53 | 0.21019 | -30.32171 | 35920 ft | 478 kts | 207° |
| 2026-04-30 08:53 | 0.15112 | -30.35221 | 35920 ft | 478 kts | 207° |
| 2026-04-30 08:54 | 0.09206 | -30.38271 | 35912 ft | 478 kts | 207° |
| 2026-04-30 08:54 | 0.03294 | -30.41325 | 35919 ft | 478 kts | 207° |
| 2026-04-30 08:55 | -0.02621 | -30.44382 | 35913 ft | 479 kts | 207° |
| 2026-04-30 08:55 | -0.08537 | -30.47439 | 35919 ft | 479 kts | 207° |
| 2026-04-30 08:56 | -0.14460 | -30.50499 | 35921 ft | 479 kts | 207° |
| 2026-04-30 08:56 | -0.20388 | -30.53562 | 35917 ft | 480 kts | 207° |
| 2026-04-30 08:57 | -0.26316 | -30.56625 | 35914 ft | 480 kts | 207° |
| 2026-04-30 08:57 | -0.32245 | -30.59689 | 35913 ft | 480 kts | 207° |
| 2026-04-30 08:58 | -0.38179 | -30.62755 | 35920 ft | 480 kts | 207° |
| 2026-04-30 08:58 | -0.44110 | -30.65820 | 35917 ft | 480 kts | 207° |
| 2026-04-30 08:59 | -0.50037 | -30.68883 | 35919 ft | 480 kts | 207° |
| 2026-04-30 08:59 | -0.55964 | -30.71945 | 35918 ft | 479 kts | 207° |
| 2026-04-30 09:00 | -0.61887 | -30.75007 | 35918 ft | 479 kts | 207° |
| 2026-04-30 09:00 | -0.67770 | -30.78047 | 35917 ft | 479 kts | 207° |
| 2026-04-30 09:01 | -0.73692 | -30.81107 | 35923 ft | 479 kts | 207° |
| 2026-04-30 09:01 | -0.79617 | -30.84170 | 35916 ft | 480 kts | 207° |
| 2026-04-30 09:02 | -0.88514 | -30.88770 | 35920 ft | 480 kts | 207° |
| 2026-04-30 09:02 | -0.94451 | -30.91838 | 35919 ft | 481 kts | 207° |
| 2026-04-30 09:03 | -1.00395 | -30.94904 | 35919 ft | 481 kts | 207° |
| 2026-04-30 09:03 | -1.06342 | -30.97971 | 35915 ft | 481 kts | 207° |
| 2026-04-30 09:04 | -1.12292 | -31.01040 | 35919 ft | 481 kts | 207° |
| 2026-04-30 09:04 | -1.18244 | -31.04112 | 35919 ft | 482 kts | 207° |
| 2026-04-30 09:05 | -1.24201 | -31.07186 | 35919 ft | 482 kts | 207° |
| 2026-04-30 09:05 | -1.30153 | -31.10258 | 35919 ft | 482 kts | 207° |
| 2026-04-30 09:06 | -1.36106 | -31.13330 | 35919 ft | 481 kts | 207° |
| 2026-04-30 09:06 | -1.42054 | -31.16401 | 35913 ft | 481 kts | 207° |
| 2026-04-30 09:07 | -1.48000 | -31.19470 | 35920 ft | 481 kts | 207° |
| 2026-04-30 09:07 | -1.53904 | -31.22518 | 35920 ft | 480 kts | 207° |
| 2026-04-30 09:08 | -1.59843 | -31.25584 | 35917 ft | 480 kts | 207° |
| 2026-04-30 09:08 | -1.65777 | -31.28648 | 35917 ft | 480 kts | 207° |
| 2026-04-30 09:09 | -1.71712 | -31.31712 | 35924 ft | 480 kts | 207° |
| 2026-04-30 09:09 | -1.76683 | -31.34279 | 35917 ft | 480 kts | 207° |
| 2026-04-30 09:10 | -1.82615 | -31.37342 | 35920 ft | 480 kts | 207° |
| 2026-04-30 09:10 | -1.88507 | -31.40385 | 35921 ft | 480 kts | 207° |
| 2026-04-30 09:11 | -1.94441 | -31.43450 | 35921 ft | 480 kts | 207° |
| 2026-04-30 09:11 | -2.00375 | -31.46515 | 35918 ft | 480 kts | 207° |
| 2026-04-30 09:12 | -2.06306 | -31.49579 | 35917 ft | 480 kts | 207° |
| 2026-04-30 09:12 | -2.12235 | -31.52642 | 35918 ft | 479 kts | 207° |
| 2026-04-30 09:13 | -2.18160 | -31.55703 | 35916 ft | 479 kts | 207° |
| 2026-04-30 09:13 | -2.24084 | -31.58764 | 35916 ft | 479 kts | 207° |
| 2026-04-30 09:14 | -2.30008 | -31.61825 | 35920 ft | 479 kts | 207° |
| 2026-04-30 09:14 | -2.35928 | -31.64884 | 35922 ft | 479 kts | 207° |
| 2026-04-30 09:15 | -2.41853 | -31.67947 | 35918 ft | 479 kts | 207° |
| 2026-04-30 09:15 | -2.47772 | -31.71006 | 35913 ft | 479 kts | 207° |
| 2026-04-30 09:16 | -2.53693 | -31.74067 | 35919 ft | 479 kts | 207° |
| 2026-04-30 09:16 | -2.59614 | -31.77128 | 35923 ft | 479 kts | 207° |
| 2026-04-30 09:17 | -2.65528 | -31.80186 | 35917 ft | 478 kts | 207° |
| 2026-04-30 09:17 | -2.71429 | -31.83238 | 35913 ft | 477 kts | 207° |
| 2026-04-30 09:18 | -2.77316 | -31.86283 | 35920 ft | 476 kts | 207° |
| 2026-04-30 09:18 | -2.83195 | -31.89324 | 35921 ft | 476 kts | 207° |
| 2026-04-30 09:19 | -2.89072 | -31.92364 | 35916 ft | 476 kts | 207° |
| 2026-04-30 09:19 | -2.94953 | -31.95407 | 35921 ft | 476 kts | 207° |
| 2026-04-30 09:20 | -3.00836 | -31.98450 | 35925 ft | 476 kts | 207° |
| 2026-04-30 09:20 | -3.06723 | -32.01497 | 35918 ft | 477 kts | 207° |
| 2026-04-30 09:21 | -3.12569 | -32.04523 | 35917 ft | 477 kts | 207° |
| 2026-04-30 09:21 | -3.18462 | -32.07574 | 35915 ft | 476 kts | 207° |
| 2026-04-30 09:22 | -3.24350 | -32.10623 | 35922 ft | 476 kts | 207° |
| 2026-04-30 09:22 | -3.30234 | -32.13683 | 35914 ft | 477 kts | 208° |
| 2026-04-30 09:23 | -3.36103 | -32.16783 | 35918 ft | 477 kts | 208° |
| 2026-04-30 09:23 | -3.41979 | -32.19895 | 35922 ft | 477 kts | 208° |
| 2026-04-30 09:24 | -3.47856 | -32.23002 | 35915 ft | 478 kts | 208° |
| 2026-04-30 09:24 | -3.53729 | -32.26104 | 35906 ft | 478 kts | 208° |
| 2026-04-30 09:25 | -3.59602 | -32.29206 | 35908 ft | 477 kts | 208° |
| 2026-04-30 09:25 | -3.65480 | -32.32311 | 35907 ft | 477 kts | 208° |
| 2026-04-30 09:26 | -3.71354 | -32.35415 | 35896 ft | 477 kts | 208° |
| 2026-04-30 09:26 | -3.77228 | -32.38520 | 35878 ft | 478 kts | 208° |
| 2026-04-30 09:27 | -3.83097 | -32.41623 | 35884 ft | 477 kts | 208° |
| 2026-04-30 09:27 | -3.88979 | -32.44709 | 35882 ft | 478 kts | 207° |
| 2026-04-30 09:28 | -3.94898 | -32.47745 | 35883 ft | 479 kts | 207° |
| 2026-04-30 09:28 | -4.00834 | -32.50783 | 35898 ft | 480 kts | 207° |
| 2026-04-30 09:29 | -4.06783 | -32.53840 | 35910 ft | 481 kts | 207° |
| 2026-04-30 09:29 | -4.12739 | -32.56904 | 35910 ft | 481 kts | 207° |
| 2026-04-30 09:30 | -4.18687 | -32.59966 | 35907 ft | 481 kts | 207° |
| 2026-04-30 09:30 | -4.24633 | -32.63028 | 35926 ft | 481 kts | 207° |
| 2026-04-30 09:31 | -4.30587 | -32.66093 | 35923 ft | 482 kts | 207° |
| 2026-04-30 09:31 | -4.36510 | -32.69144 | 35922 ft | 483 kts | 207° |
| 2026-04-30 09:32 | -4.42484 | -32.72221 | 35925 ft | 483 kts | 207° |
| 2026-04-30 09:32 | -4.48468 | -32.75303 | 35935 ft | 484 kts | 207° |
| 2026-04-30 09:33 | -4.54464 | -32.78394 | 35915 ft | 485 kts | 207° |
| 2026-04-30 09:33 | -4.60461 | -32.81484 | 35922 ft | 485 kts | 207° |
| 2026-04-30 09:34 | -4.66457 | -32.84566 | 35929 ft | 484 kts | 207° |
| 2026-04-30 09:34 | -4.72450 | -32.87642 | 35930 ft | 484 kts | 207° |
| 2026-04-30 09:35 | -4.78435 | -32.90717 | 35931 ft | 483 kts | 207° |
| 2026-04-30 09:35 | -4.84412 | -32.93789 | 35929 ft | 483 kts | 207° |
| 2026-04-30 09:36 | -4.90387 | -32.96862 | 35934 ft | 482 kts | 207° |
| 2026-04-30 09:36 | -4.96356 | -32.99932 | 35931 ft | 482 kts | 207° |
| 2026-04-30 09:37 | -5.02324 | -33.03002 | 35931 ft | 482 kts | 207° |
| 2026-04-30 09:37 | -5.08294 | -33.06074 | 35936 ft | 482 kts | 207° |
| 2026-04-30 09:38 | -5.14268 | -33.09148 | 35933 ft | 483 kts | 207° |
| 2026-04-30 09:38 | -5.20253 | -33.12229 | 35932 ft | 483 kts | 207° |
| 2026-04-30 09:39 | -5.26239 | -33.15311 | 35933 ft | 484 kts | 207° |
| 2026-04-30 09:39 | -5.32226 | -33.18394 | 35937 ft | 484 kts | 207° |
| 2026-04-30 09:40 | -5.38211 | -33.21477 | 35933 ft | 483 kts | 207° |
| 2026-04-30 09:40 | -5.44194 | -33.24559 | 35932 ft | 483 kts | 207° |
| 2026-04-30 09:41 | -5.50167 | -33.27637 | 35931 ft | 482 kts | 207° |
| 2026-04-30 09:41 | -5.56130 | -33.30711 | 35933 ft | 482 kts | 207° |
| 2026-04-30 09:42 | -5.62059 | -33.33767 | 35933 ft | 482 kts | 207° |
| 2026-04-30 09:42 | -5.68021 | -33.36842 | 35933 ft | 482 kts | 207° |
| 2026-04-30 09:43 | -5.73988 | -33.39919 | 35943 ft | 482 kts | 207° |
| 2026-04-30 09:43 | -5.79963 | -33.43001 | 35942 ft | 483 kts | 207° |
| 2026-04-30 09:44 | -5.85934 | -33.46083 | 35929 ft | 482 kts | 207° |
| 2026-04-30 09:44 | -5.91869 | -33.49147 | 35933 ft | 481 kts | 207° |
| 2026-04-30 09:45 | -5.97818 | -33.52218 | 35939 ft | 480 kts | 207° |
| 2026-04-30 09:45 | -6.03760 | -33.55286 | 35935 ft | 480 kts | 207° |
| 2026-04-30 09:46 | -6.09701 | -33.58355 | 35935 ft | 480 kts | 207° |
| 2026-04-30 09:46 | -6.15651 | -33.61429 | 35938 ft | 481 kts | 207° |
| 2026-04-30 09:47 | -6.21607 | -33.64507 | 35938 ft | 482 kts | 207° |
| 2026-04-30 09:47 | -6.27568 | -33.67589 | 35934 ft | 482 kts | 207° |
| 2026-04-30 09:48 | -6.33534 | -33.70673 | 35941 ft | 482 kts | 207° |
| 2026-04-30 09:48 | -6.39501 | -33.73759 | 35936 ft | 482 kts | 207° |
| 2026-04-30 09:49 | -6.45465 | -33.76845 | 35934 ft | 482 kts | 207° |
| 2026-04-30 09:49 | -6.51388 | -33.79910 | 35936 ft | 482 kts | 207° |
| 2026-04-30 09:50 | -6.57345 | -33.82993 | 35940 ft | 481 kts | 207° |
| 2026-04-30 09:50 | -6.63340 | -33.86097 | 35936 ft | 481 kts | 207° |
| 2026-04-30 09:51 | -6.69292 | -33.89180 | 35938 ft | 481 kts | 207° |
| 2026-04-30 09:51 | -6.75209 | -33.92245 | 35945 ft | 481 kts | 207° |
| 2026-04-30 09:52 | -6.81167 | -33.95332 | 35944 ft | 482 kts | 207° |
| 2026-04-30 09:52 | -6.87121 | -33.98419 | 35939 ft | 482 kts | 207° |
| 2026-04-30 09:53 | -6.93084 | -34.01510 | 35945 ft | 482 kts | 207° |
| 2026-04-30 09:53 | -6.99047 | -34.04603 | 35950 ft | 482 kts | 207° |
| 2026-04-30 09:54 | -7.05013 | -34.07698 | 35945 ft | 483 kts | 207° |
| 2026-04-30 09:54 | -7.10983 | -34.10796 | 35944 ft | 483 kts | 207° |
| 2026-04-30 09:55 | -7.16959 | -34.13898 | 35950 ft | 483 kts | 207° |
| 2026-04-30 09:55 | -7.22938 | -34.17003 | 35951 ft | 484 kts | 207° |
| 2026-04-30 09:56 | -7.28916 | -34.20108 | 35944 ft | 484 kts | 207° |
| 2026-04-30 09:56 | -7.34902 | -34.23217 | 35952 ft | 484 kts | 206° |
| 2026-04-30 09:57 | -7.39873 | -34.25801 | 35950 ft | 484 kts | 207° |
| 2026-04-30 09:57 | -7.45850 | -34.28908 | 35947 ft | 483 kts | 207° |
| 2026-04-30 09:58 | -7.51821 | -34.32013 | 35948 ft | 483 kts | 207° |
| 2026-04-30 09:58 | -7.57791 | -34.35119 | 35951 ft | 482 kts | 206° |
| 2026-04-30 09:59 | -7.69716 | -34.41326 | 35954 ft | 483 kts | 206° |
| 2026-04-30 10:00 | -7.78660 | -34.46004 | 35956 ft | 483 kts | 207° |
| 2026-04-30 10:01 | -7.87539 | -34.50821 | 35953 ft | 483 kts | 208° |
| 2026-04-30 10:02 | -7.96419 | -34.55635 | 35954 ft | 483 kts | 207° |
| 2026-04-30 10:02 | -8.02344 | -34.58840 | 35964 ft | 483 kts | 207° |
| 2026-04-30 10:03 | -8.08269 | -34.62046 | 35960 ft | 483 kts | 207° |
| 2026-04-30 10:03 | -8.14237 | -34.65160 | 35957 ft | 483 kts | 202° |
| 2026-04-30 10:04 | -8.20400 | -34.67716 | 35958 ft | 482 kts | 201° |
| 2026-04-30 10:04 | -8.26626 | -34.70253 | 35948 ft | 483 kts | 201° |
| 2026-04-30 10:05 | -8.32851 | -34.72817 | 35945 ft | 483 kts | 201° |
| 2026-04-30 10:05 | -8.39066 | -34.75397 | 35960 ft | 483 kts | 201° |
| 2026-04-30 10:06 | -8.45277 | -34.77981 | 35969 ft | 483 kts | 201° |
| 2026-04-30 10:06 | -8.51483 | -34.80562 | 35962 ft | 482 kts | 201° |
| 2026-04-30 10:07 | -8.57686 | -34.83141 | 35969 ft | 482 kts | 201° |
| 2026-04-30 10:07 | -8.63883 | -34.85719 | 35971 ft | 482 kts | 201° |
| 2026-04-30 10:08 | -8.70078 | -34.88297 | 35967 ft | 481 kts | 201° |
| 2026-04-30 10:08 | -8.76271 | -34.90876 | 35968 ft | 481 kts | 200° |
| 2026-04-30 10:09 | -8.82459 | -34.93453 | 35971 ft | 481 kts | 201° |
| 2026-04-30 10:09 | -8.88648 | -34.96031 | 35969 ft | 481 kts | 201° |
| 2026-04-30 10:10 | -8.94837 | -34.98611 | 35974 ft | 481 kts | 200° |
| 2026-04-30 10:10 | -9.01028 | -35.01192 | 35976 ft | 481 kts | 201° |
| 2026-04-30 10:11 | -9.07159 | -35.03915 | 35970 ft | 482 kts | 207° |
| 2026-04-30 10:11 | -9.12991 | -35.07280 | 35978 ft | 483 kts | 208° |
| 2026-04-30 10:12 | -9.18801 | -35.10694 | 35977 ft | 483 kts | 208° |
| 2026-04-30 10:12 | -9.24624 | -35.14086 | 35974 ft | 483 kts | 208° |
| 2026-04-30 10:13 | -9.30461 | -35.17465 | 35979 ft | 483 kts | 208° |
| 2026-04-30 10:13 | -9.36297 | -35.20839 | 35981 ft | 483 kts | 208° |
| 2026-04-30 10:14 | -9.42097 | -35.24193 | 35976 ft | 483 kts | 207° |
| 2026-04-30 10:14 | -9.50847 | -35.29259 | 35980 ft | 483 kts | 208° |
| 2026-04-30 10:15 | -9.56671 | -35.32633 | 35978 ft | 482 kts | 208° |
| 2026-04-30 10:15 | -9.62495 | -35.36008 | 35981 ft | 482 kts | 208° |
| 2026-04-30 10:16 | -9.68311 | -35.39379 | 35985 ft | 481 kts | 208° |
| 2026-04-30 10:17 | -9.77031 | -35.44437 | 35983 ft | 481 kts | 208° |
| 2026-04-30 10:17 | -9.85753 | -35.49499 | 35984 ft | 482 kts | 208° |
| 2026-04-30 10:18 | -9.91569 | -35.52876 | 35981 ft | 482 kts | 208° |
| 2026-04-30 10:19 | -10.00288 | -35.57941 | 35984 ft | 481 kts | 209° |
| 2026-04-30 10:19 | -10.06099 | -35.61319 | 35980 ft | 481 kts | 208° |
| 2026-04-30 10:20 | -10.11906 | -35.64696 | 35986 ft | 481 kts | 208° |
| 2026-04-30 10:20 | -10.20618 | -35.69764 | 35986 ft | 481 kts | 209° |
| 2026-04-30 10:21 | -10.26429 | -35.73148 | 35984 ft | 481 kts | 208° |
| 2026-04-30 10:21 | -10.32238 | -35.76532 | 35980 ft | 482 kts | 209° |
| 2026-04-30 10:22 | -10.38048 | -35.79918 | 35987 ft | 482 kts | 208° |
| 2026-04-30 10:22 | -10.43863 | -35.83312 | 35986 ft | 482 kts | 208° |
| 2026-04-30 10:23 | -10.49673 | -35.86707 | 35985 ft | 482 kts | 208° |
| 2026-04-30 10:23 | -10.55484 | -35.90104 | 35986 ft | 482 kts | 208° |
| 2026-04-30 10:24 | -10.61295 | -35.93503 | 35993 ft | 482 kts | 208° |
| 2026-04-30 10:24 | -10.67107 | -35.96905 | 35985 ft | 482 kts | 209° |
| 2026-04-30 10:25 | -10.72884 | -36.00287 | 35988 ft | 482 kts | 208° |
| 2026-04-30 10:25 | -10.78700 | -36.03692 | 35995 ft | 482 kts | 207° |
| 2026-04-30 10:26 | -10.84518 | -36.07102 | 35993 ft | 483 kts | 207° |
| 2026-04-30 10:26 | -10.90337 | -36.10513 | 35990 ft | 483 kts | 208° |
| 2026-04-30 10:27 | -10.96159 | -36.13928 | 35994 ft | 483 kts | 208° |
| 2026-04-30 10:27 | -11.01980 | -36.17344 | 35993 ft | 483 kts | 208° |
| 2026-04-30 10:28 | -11.07801 | -36.20762 | 35996 ft | 483 kts | 208° |
| 2026-04-30 10:28 | -11.13625 | -36.24179 | 35998 ft | 483 kts | 207° |
| 2026-04-30 10:29 | -11.19566 | -36.27367 | 36004 ft | 482 kts | 205° |
| 2026-04-30 10:29 | -11.25568 | -36.30427 | 35991 ft | 482 kts | 204° |
| 2026-04-30 10:30 | -11.31559 | -36.33514 | 36002 ft | 482 kts | 205° |
| 2026-04-30 10:30 | -11.37529 | -36.36630 | 36000 ft | 482 kts | 205° |
| 2026-04-30 10:31 | -11.43495 | -36.39758 | 35998 ft | 482 kts | 205° |
| 2026-04-30 10:31 | -11.49464 | -36.42890 | 35995 ft | 483 kts | 205° |
| 2026-04-30 10:32 | -11.55434 | -36.46023 | 36001 ft | 482 kts | 205° |
| 2026-04-30 10:32 | -11.61401 | -36.49153 | 36000 ft | 482 kts | 205° |
| 2026-04-30 10:33 | -11.67367 | -36.52285 | 36000 ft | 482 kts | 205° |
| 2026-04-30 10:33 | -11.73295 | -36.55399 | 36002 ft | 482 kts | 205° |
| 2026-04-30 10:34 | -11.79261 | -36.58534 | 36002 ft | 482 kts | 205° |
| 2026-04-30 10:34 | -11.85227 | -36.61670 | 36000 ft | 482 kts | 205° |
| 2026-04-30 10:35 | -11.91194 | -36.64809 | 36006 ft | 482 kts | 205° |
| 2026-04-30 10:35 | -11.97164 | -36.67951 | 36001 ft | 483 kts | 205° |
| 2026-04-30 10:36 | -12.03135 | -36.71095 | 36000 ft | 483 kts | 205° |
| 2026-04-30 10:36 | -12.09105 | -36.74240 | 36001 ft | 483 kts | 205° |
| 2026-04-30 10:37 | -12.15073 | -36.77386 | 36005 ft | 483 kts | 205° |
| 2026-04-30 10:37 | -12.21041 | -36.80533 | 36007 ft | 483 kts | 205° |
| 2026-04-30 10:38 | -12.27009 | -36.83683 | 36006 ft | 483 kts | 205° |
| 2026-04-30 10:38 | -12.32978 | -36.86834 | 36003 ft | 483 kts | 205° |
| 2026-04-30 10:39 | -12.38946 | -36.89987 | 36007 ft | 483 kts | 205° |
| 2026-04-30 10:39 | -12.44913 | -36.93143 | 36011 ft | 483 kts | 205° |
| 2026-04-30 10:40 | -12.50880 | -36.96302 | 36006 ft | 483 kts | 205° |
| 2026-04-30 10:40 | -12.56847 | -36.99462 | 36004 ft | 483 kts | 205° |
| 2026-04-30 10:41 | -12.62809 | -37.02622 | 36010 ft | 483 kts | 205° |
| 2026-04-30 10:41 | -12.68774 | -37.05784 | 36012 ft | 483 kts | 205° |
| 2026-04-30 10:42 | -12.74739 | -37.08948 | 36013 ft | 483 kts | 205° |
| 2026-04-30 10:42 | -12.80703 | -37.12114 | 36014 ft | 483 kts | 205° |
| 2026-04-30 10:43 | -12.86668 | -37.15282 | 36013 ft | 483 kts | 205° |
| 2026-04-30 10:43 | -12.92632 | -37.18451 | 36017 ft | 483 kts | 205° |
| 2026-04-30 10:44 | -12.97588 | -37.21086 | 36016 ft | 483 kts | 205° |
| 2026-04-30 10:44 | -13.03556 | -37.24261 | 36015 ft | 483 kts | 205° |
| 2026-04-30 10:45 | -13.09517 | -37.27433 | 36017 ft | 483 kts | 205° |
| 2026-04-30 10:45 | -13.15484 | -37.30611 | 36013 ft | 483 kts | 205° |
| 2026-04-30 10:46 | -13.21447 | -37.33791 | 36021 ft | 483 kts | 205° |
| 2026-04-30 10:46 | -13.27409 | -37.36972 | 36018 ft | 483 kts | 205° |
| 2026-04-30 10:47 | -13.33371 | -37.40155 | 36019 ft | 483 kts | 205° |
| 2026-04-30 10:47 | -13.39333 | -37.43341 | 36022 ft | 483 kts | 205° |
| 2026-04-30 10:48 | -13.45296 | -37.46528 | 36025 ft | 483 kts | 205° |
| 2026-04-30 10:48 | -13.51252 | -37.49714 | 36022 ft | 483 kts | 205° |
| 2026-04-30 10:49 | -13.57215 | -37.52905 | 36026 ft | 483 kts | 205° |
| 2026-04-30 10:49 | -13.63171 | -37.56093 | 36024 ft | 483 kts | 205° |
| 2026-04-30 10:50 | -13.69129 | -37.59286 | 36025 ft | 483 kts | 205° |
| 2026-04-30 10:50 | -13.75050 | -37.62460 | 36028 ft | 483 kts | 205° |
| 2026-04-30 10:51 | -13.81005 | -37.65654 | 36027 ft | 483 kts | 205° |
| 2026-04-30 10:51 | -13.86963 | -37.68852 | 36032 ft | 483 kts | 205° |
| 2026-04-30 10:52 | -13.92921 | -37.72051 | 36031 ft | 483 kts | 205° |
| 2026-04-30 10:52 | -13.98875 | -37.75250 | 36036 ft | 483 kts | 205° |
| 2026-04-30 10:53 | -14.04833 | -37.78453 | 36035 ft | 483 kts | 205° |
| 2026-04-30 10:53 | -14.10791 | -37.81658 | 36036 ft | 483 kts | 205° |
| 2026-04-30 10:54 | -14.16751 | -37.84866 | 36035 ft | 483 kts | 205° |
| 2026-04-30 10:54 | -14.22711 | -37.88076 | 36034 ft | 483 kts | 205° |
| 2026-04-30 10:55 | -14.28671 | -37.91288 | 36041 ft | 483 kts | 205° |
| 2026-04-30 10:55 | -14.34634 | -37.94503 | 36035 ft | 484 kts | 205° |
| 2026-04-30 10:56 | -14.40597 | -37.97721 | 36042 ft | 484 kts | 205° |
| 2026-04-30 10:56 | -14.46559 | -38.00940 | 36040 ft | 484 kts | 205° |
| 2026-04-30 10:57 | -14.52521 | -38.04161 | 36040 ft | 484 kts | 205° |
| 2026-04-30 10:57 | -14.58480 | -38.07382 | 36041 ft | 483 kts | 205° |
| 2026-04-30 10:58 | -14.64437 | -38.10604 | 36043 ft | 483 kts | 205° |
| 2026-04-30 10:58 | -14.70393 | -38.13828 | 36031 ft | 483 kts | 205° |
| 2026-04-30 10:59 | -14.76350 | -38.17054 | 36041 ft | 483 kts | 205° |
| 2026-04-30 10:59 | -14.82260 | -38.20257 | 36048 ft | 483 kts | 205° |
| 2026-04-30 11:00 | -14.88212 | -38.23484 | 36048 ft | 483 kts | 205° |
| 2026-04-30 11:00 | -14.94163 | -38.26714 | 36053 ft | 483 kts | 205° |
| 2026-04-30 11:01 | -15.00115 | -38.29946 | 36047 ft | 483 kts | 205° |
| 2026-04-30 11:01 | -15.06069 | -38.33176 | 36046 ft | 483 kts | 205° |
| 2026-04-30 11:02 | -15.12026 | -38.36404 | 36049 ft | 483 kts | 205° |
| 2026-04-30 11:02 | -15.17982 | -38.39634 | 36052 ft | 483 kts | 205° |
| 2026-04-30 11:03 | -15.23937 | -38.42868 | 36057 ft | 483 kts | 206° |
| 2026-04-30 11:04 | -15.32864 | -38.47720 | 36057 ft | 483 kts | 206° |
| 2026-04-30 11:04 | -15.38815 | -38.50957 | 36057 ft | 483 kts | 206° |
| 2026-04-30 11:05 | -15.44760 | -38.54193 | 36057 ft | 483 kts | 206° |
| 2026-04-30 11:05 | -15.50700 | -38.57428 | 36058 ft | 482 kts | 206° |
| 2026-04-30 11:06 | -15.56639 | -38.60665 | 36063 ft | 482 kts | 206° |
| 2026-04-30 11:06 | -15.62540 | -38.63883 | 36062 ft | 482 kts | 206° |
| 2026-04-30 11:07 | -15.68516 | -38.67144 | 36065 ft | 482 kts | 206° |
| 2026-04-30 11:07 | -15.74455 | -38.70388 | 36063 ft | 482 kts | 206° |
| 2026-04-30 11:08 | -15.80353 | -38.73612 | 36067 ft | 482 kts | 206° |
| 2026-04-30 11:08 | -15.86294 | -38.76860 | 36064 ft | 483 kts | 206° |
| 2026-04-30 11:09 | -15.92237 | -38.80110 | 36067 ft | 483 kts | 206° |
| 2026-04-30 11:09 | -15.98181 | -38.83364 | 36066 ft | 483 kts | 206° |
| 2026-04-30 11:10 | -16.04124 | -38.86621 | 36072 ft | 483 kts | 206° |
| 2026-04-30 11:10 | -16.10066 | -38.89879 | 36073 ft | 483 kts | 206° |
| 2026-04-30 11:11 | -16.16006 | -38.93138 | 36076 ft | 483 kts | 206° |
| 2026-04-30 11:11 | -16.21945 | -38.96399 | 36073 ft | 483 kts | 206° |
| 2026-04-30 11:12 | -16.27895 | -38.99620 | 36079 ft | 482 kts | 205° |
| 2026-04-30 11:12 | -16.33872 | -39.02789 | 36076 ft | 482 kts | 205° |
| 2026-04-30 11:13 | -16.39842 | -39.05969 | 36075 ft | 482 kts | 206° |
| 2026-04-30 11:13 | -16.45808 | -39.09169 | 36073 ft | 483 kts | 206° |
| 2026-04-30 11:14 | -16.51722 | -39.12475 | 36069 ft | 482 kts | 207° |
| 2026-04-30 11:14 | -16.57614 | -39.15814 | 36079 ft | 482 kts | 207° |
| 2026-04-30 11:15 | -16.63508 | -39.19140 | 36078 ft | 481 kts | 207° |
| 2026-04-30 11:15 | -16.69403 | -39.22457 | 36086 ft | 481 kts | 207° |
| 2026-04-30 11:16 | -16.75296 | -39.25772 | 36090 ft | 481 kts | 207° |
| 2026-04-30 11:16 | -16.81187 | -39.29090 | 36089 ft | 481 kts | 207° |
| 2026-04-30 11:17 | -16.87036 | -39.32387 | 36092 ft | 481 kts | 207° |
| 2026-04-30 11:17 | -16.92923 | -39.35708 | 36089 ft | 481 kts | 207° |
| 2026-04-30 11:18 | -16.98810 | -39.39032 | 36093 ft | 481 kts | 207° |
| 2026-04-30 11:18 | -17.07638 | -39.44017 | 36096 ft | 481 kts | 207° |
| 2026-04-30 11:19 | -17.13526 | -39.47343 | 36096 ft | 481 kts | 207° |
| 2026-04-30 11:19 | -17.19410 | -39.50669 | 36100 ft | 481 kts | 207° |
| 2026-04-30 11:20 | -17.25292 | -39.53998 | 36101 ft | 481 kts | 207° |
| 2026-04-30 11:20 | -17.31173 | -39.57329 | 36104 ft | 481 kts | 207° |
| 2026-04-30 11:21 | -17.37055 | -39.60663 | 36099 ft | 481 kts | 207° |
| 2026-04-30 11:21 | -17.42934 | -39.63998 | 36100 ft | 481 kts | 207° |
| 2026-04-30 11:22 | -17.48814 | -39.67336 | 36105 ft | 481 kts | 207° |
| 2026-04-30 11:22 | -17.54692 | -39.70674 | 36104 ft | 481 kts | 207° |
| 2026-04-30 11:23 | -17.60577 | -39.74019 | 36106 ft | 481 kts | 207° |
| 2026-04-30 11:24 | -17.69395 | -39.79038 | 36110 ft | 481 kts | 208° |
| 2026-04-30 11:24 | -17.75274 | -39.82386 | 36108 ft | 481 kts | 208° |
| 2026-04-30 11:25 | -17.84088 | -39.87411 | 36110 ft | 480 kts | 208° |
| 2026-04-30 11:26 | -17.95788 | -39.94091 | 36112 ft | 480 kts | 208° |
| 2026-04-30 11:26 | -18.01649 | -39.97440 | 36108 ft | 480 kts | 208° |
| 2026-04-30 11:27 | -18.07523 | -40.00775 | 36115 ft | 479 kts | 208° |
| 2026-04-30 11:27 | -18.13396 | -40.04102 | 36113 ft | 479 kts | 208° |
| 2026-04-30 11:28 | -18.22195 | -40.09098 | 36117 ft | 479 kts | 208° |
| 2026-04-30 11:29 | -18.28059 | -40.12434 | 36116 ft | 479 kts | 208° |
| 2026-04-30 11:29 | -18.36852 | -40.17440 | 36116 ft | 479 kts | 208° |
| 2026-04-30 11:30 | -18.45638 | -40.22449 | 36122 ft | 479 kts | 208° |
| 2026-04-30 11:31 | -18.51495 | -40.25790 | 36118 ft | 479 kts | 208° |
| 2026-04-30 11:31 | -18.57350 | -40.29133 | 36122 ft | 479 kts | 209° |
| 2026-04-30 11:32 | -18.63202 | -40.32477 | 36118 ft | 478 kts | 209° |
| 2026-04-30 11:32 | -18.69051 | -40.35823 | 36113 ft | 478 kts | 209° |
| 2026-04-30 11:33 | -18.77818 | -40.40842 | 36118 ft | 478 kts | 209° |
| 2026-04-30 11:33 | -18.82671 | -40.43622 | 36123 ft | 477 kts | 209° |
| 2026-04-30 11:34 | -18.88505 | -40.46968 | 36119 ft | 477 kts | 209° |
| 2026-04-30 11:34 | -18.94344 | -40.50319 | 36120 ft | 477 kts | 209° |
| 2026-04-30 11:35 | -19.00176 | -40.53668 | 36120 ft | 477 kts | 209° |
| 2026-04-30 11:35 | -19.06004 | -40.57019 | 36130 ft | 477 kts | 209° |
| 2026-04-30 11:36 | -19.11824 | -40.60367 | 36128 ft | 476 kts | 210° |
| 2026-04-30 11:36 | -19.17644 | -40.63718 | 36127 ft | 476 kts | 210° |
| 2026-04-30 11:37 | -19.23454 | -40.67065 | 36126 ft | 475 kts | 210° |
| 2026-04-30 11:37 | -19.29257 | -40.70412 | 36127 ft | 475 kts | 210° |
| 2026-04-30 11:38 | -19.35057 | -40.73760 | 36123 ft | 474 kts | 210° |
| 2026-04-30 11:38 | -19.40850 | -40.77106 | 36126 ft | 474 kts | 210° |
| 2026-04-30 11:39 | -19.46638 | -40.80452 | 36128 ft | 474 kts | 210° |
| 2026-04-30 11:39 | -19.52420 | -40.83798 | 36130 ft | 473 kts | 210° |
| 2026-04-30 11:40 | -19.58199 | -40.87145 | 36131 ft | 473 kts | 210° |
| 2026-04-30 11:40 | -19.63939 | -40.90464 | 36134 ft | 473 kts | 210° |
| 2026-04-30 11:41 | -19.69723 | -40.93807 | 36130 ft | 473 kts | 210° |
| 2026-04-30 11:41 | -19.75505 | -40.97155 | 36135 ft | 474 kts | 210° |
| 2026-04-30 11:42 | -19.81286 | -41.00507 | 36144 ft | 473 kts | 210° |
| 2026-04-30 11:42 | -19.87068 | -41.03861 | 36145 ft | 473 kts | 210° |
| 2026-04-30 11:43 | -19.92837 | -41.07248 | 36146 ft | 474 kts | 211° |
| 2026-04-30 11:43 | -19.98595 | -41.10648 | 36157 ft | 473 kts | 211° |
| 2026-04-30 11:44 | -20.04349 | -41.14041 | 36158 ft | 473 kts | 211° |
| 2026-04-30 11:44 | -20.10109 | -41.17439 | 36159 ft | 473 kts | 211° |
| 2026-04-30 11:45 | -20.15871 | -41.20839 | 36146 ft | 473 kts | 211° |
| 2026-04-30 11:45 | -20.21633 | -41.24236 | 36151 ft | 473 kts | 211° |
| 2026-04-30 11:46 | -20.27389 | -41.27629 | 36152 ft | 472 kts | 211° |
| 2026-04-30 11:46 | -20.33132 | -41.31019 | 36156 ft | 472 kts | 211° |
| 2026-04-30 11:47 | -20.38868 | -41.34407 | 36148 ft | 471 kts | 211° |
| 2026-04-30 11:47 | -20.44593 | -41.37795 | 36142 ft | 471 kts | 211° |
| 2026-04-30 11:48 | -20.50319 | -41.41182 | 36153 ft | 471 kts | 211° |
| 2026-04-30 11:48 | -20.56062 | -41.44561 | 36149 ft | 472 kts | 211° |
| 2026-04-30 11:49 | -20.61814 | -41.47940 | 36138 ft | 472 kts | 211° |
| 2026-04-30 11:49 | -20.67523 | -41.51298 | 36142 ft | 472 kts | 211° |
| 2026-04-30 11:50 | -20.73274 | -41.54686 | 36185 ft | 474 kts | 211° |
| 2026-04-30 11:50 | -20.76162 | -41.56391 | 36470 ft | 475 kts | 211° |
| 2026-04-30 11:50 | -20.79045 | -41.58091 | 36931 ft | 471 kts | 212° |
| 2026-04-30 11:51 | -20.81903 | -41.59776 | 37383 ft | 468 kts | 212° |
| 2026-04-30 11:51 | -20.84749 | -41.61456 | 37799 ft | 466 kts | 212° |
| 2026-04-30 11:51 | -20.87589 | -41.63134 | 38076 ft | 467 kts | 212° |
| 2026-04-30 11:51 | -20.90443 | -41.64823 | 38107 ft | 469 kts | 212° |
| 2026-04-30 11:52 | -20.96154 | -41.68203 | 38117 ft | 468 kts | 212° |
| 2026-04-30 11:52 | -21.01824 | -41.71557 | 38125 ft | 464 kts | 212° |
| 2026-04-30 11:53 | -21.07450 | -41.74891 | 38120 ft | 461 kts | 212° |
| 2026-04-30 11:53 | -21.13057 | -41.78217 | 38121 ft | 460 kts | 212° |
| 2026-04-30 11:54 | -21.18663 | -41.81545 | 38139 ft | 461 kts | 212° |
| 2026-04-30 11:54 | -21.24285 | -41.84882 | 38126 ft | 463 kts | 212° |
| 2026-04-30 11:55 | -21.29925 | -41.88230 | 38123 ft | 463 kts | 212° |
| 2026-04-30 11:55 | -21.35572 | -41.91585 | 38122 ft | 465 kts | 212° |
| 2026-04-30 11:56 | -21.41234 | -41.94954 | 38129 ft | 466 kts | 212° |
| 2026-04-30 11:56 | -21.46905 | -41.98332 | 38119 ft | 467 kts | 212° |
| 2026-04-30 11:57 | -21.52580 | -42.01714 | 38120 ft | 466 kts | 212° |
| 2026-04-30 11:57 | -21.58247 | -42.05095 | 38124 ft | 466 kts | 212° |
| 2026-04-30 11:58 | -21.63913 | -42.08476 | 38132 ft | 465 kts | 213° |
| 2026-04-30 11:58 | -21.69565 | -42.11856 | 38119 ft | 464 kts | 213° |
| 2026-04-30 11:59 | -21.75201 | -42.15228 | 38126 ft | 463 kts | 213° |
| 2026-04-30 11:59 | -21.80822 | -42.18593 | 38112 ft | 461 kts | 213° |
| 2026-04-30 12:00 | -21.86552 | -42.21709 | 38125 ft | 464 kts | 206° |
| 2026-04-30 12:00 | -21.92503 | -42.24298 | 38132 ft | 465 kts | 206° |
| 2026-04-30 12:01 | -21.98507 | -42.26899 | 38128 ft | 465 kts | 206° |
| 2026-04-30 12:01 | -22.04501 | -42.29533 | 38152 ft | 466 kts | 206° |
| 2026-04-30 12:02 | -22.10501 | -42.32185 | 38131 ft | 466 kts | 206° |
| 2026-04-30 12:02 | -22.16498 | -42.34840 | 38146 ft | 466 kts | 206° |
| 2026-04-30 12:03 | -22.25497 | -42.38824 | 38135 ft | 465 kts | 206° |
| 2026-04-30 12:04 | -22.31482 | -42.41476 | 38130 ft | 465 kts | 206° |
| 2026-04-30 12:04 | -22.37468 | -42.44121 | 38131 ft | 465 kts | 206° |
| 2026-04-30 12:05 | -22.43452 | -42.46763 | 38130 ft | 464 kts | 206° |
| 2026-04-30 12:05 | -22.49433 | -42.49412 | 38131 ft | 465 kts | 207° |
| 2026-04-30 12:06 | -22.55420 | -42.52066 | 38105 ft | 465 kts | 207° |
| 2026-04-30 12:06 | -22.61409 | -42.54722 | 38114 ft | 465 kts | 207° |
| 2026-04-30 12:07 | -22.67394 | -42.57381 | 38116 ft | 465 kts | 207° |
| 2026-04-30 12:07 | -22.73384 | -42.60043 | 38100 ft | 465 kts | 207° |
| 2026-04-30 12:08 | -22.79225 | -42.62950 | 38091 ft | 457 kts | 218° |
| 2026-04-30 12:08 | -22.83878 | -42.67488 | 38106 ft | 447 kts | 234° |
| 2026-04-30 12:09 | -22.87281 | -42.73088 | 38109 ft | 445 kts | 241° |
| 2026-04-30 12:09 | -22.90576 | -42.78775 | 38096 ft | 446 kts | 240° |
| 2026-04-30 12:10 | -22.93933 | -42.84441 | 38081 ft | 447 kts | 240° |
| 2026-04-30 12:10 | -22.97491 | -42.89923 | 38095 ft | 450 kts | 233° |
| 2026-04-30 12:11 | -23.01820 | -42.94853 | 38121 ft | 452 kts | 229° |
| 2026-04-30 12:11 | -23.06248 | -42.99697 | 38116 ft | 451 kts | 229° |
| 2026-04-30 12:12 | -23.10643 | -43.04550 | 38091 ft | 450 kts | 230° |
| 2026-04-30 12:12 | -23.15016 | -43.09407 | 38094 ft | 449 kts | 230° |
| 2026-04-30 12:13 | -23.19378 | -43.14259 | 38093 ft | 448 kts | 230° |
| 2026-04-30 12:13 | -23.23734 | -43.19110 | 38101 ft | 447 kts | 230° |
| 2026-04-30 12:14 | -23.28077 | -43.23950 | 38099 ft | 447 kts | 230° |
| 2026-04-30 12:14 | -23.32405 | -43.28795 | 38101 ft | 446 kts | 231° |
| 2026-04-30 12:15 | -23.36658 | -43.33693 | 38115 ft | 445 kts | 231° |
| 2026-04-30 12:15 | -23.40899 | -43.38599 | 38098 ft | 444 kts | 231° |
| 2026-04-30 12:16 | -23.45137 | -43.43488 | 38097 ft | 444 kts | 231° |
| 2026-04-30 12:16 | -23.49375 | -43.48373 | 38101 ft | 443 kts | 231° |
| 2026-04-30 12:17 | -23.55792 | -43.55630 | 38106 ft | 443 kts | 231° |
| 2026-04-30 12:17 | -23.60067 | -43.60469 | 38099 ft | 443 kts | 231° |
| 2026-04-30 12:18 | -23.64344 | -43.65297 | 38102 ft | 443 kts | 230° |
| 2026-04-30 12:18 | -23.68738 | -43.70012 | 38103 ft | 443 kts | 229° |
| 2026-04-30 12:19 | -23.73092 | -43.74634 | 38100 ft | 443 kts | 229° |
| 2026-04-30 12:19 | -23.77459 | -43.79305 | 38101 ft | 442 kts | 229° |
| 2026-04-30 12:20 | -23.81845 | -43.84018 | 38096 ft | 442 kts | 229° |
| 2026-04-30 12:20 | -23.86228 | -43.88738 | 38122 ft | 442 kts | 230° |
| 2026-04-30 12:21 | -23.90612 | -43.93462 | 38103 ft | 443 kts | 230° |
| 2026-04-30 12:21 | -23.95000 | -43.98194 | 38104 ft | 443 kts | 230° |
| 2026-04-30 12:22 | -23.99382 | -44.02925 | 38105 ft | 443 kts | 230° |
| 2026-04-30 12:22 | -24.03022 | -44.06858 | 38120 ft | 443 kts | 230° |
| 2026-04-30 12:23 | -24.07400 | -44.11594 | 38104 ft | 442 kts | 230° |
| 2026-04-30 12:23 | -24.11772 | -44.16329 | 38103 ft | 442 kts | 230° |
| 2026-04-30 12:24 | -24.16142 | -44.21068 | 38107 ft | 442 kts | 230° |
| 2026-04-30 12:24 | -24.20504 | -44.25803 | 38115 ft | 441 kts | 230° |
| 2026-04-30 12:25 | -24.24857 | -44.30533 | 38105 ft | 440 kts | 230° |
| 2026-04-30 12:25 | -24.29198 | -44.35256 | 38105 ft | 439 kts | 230° |
| 2026-04-30 12:26 | -24.33527 | -44.39969 | 38103 ft | 438 kts | 230° |
| 2026-04-30 12:26 | -24.37845 | -44.44677 | 38109 ft | 437 kts | 230° |
| 2026-04-30 12:27 | -24.42153 | -44.49378 | 38106 ft | 436 kts | 230° |
| 2026-04-30 12:27 | -24.46452 | -44.54074 | 38108 ft | 436 kts | 230° |
| 2026-04-30 12:28 | -24.50740 | -44.58771 | 38119 ft | 435 kts | 231° |
| 2026-04-30 12:28 | -24.54985 | -44.63501 | 38100 ft | 435 kts | 231° |
| 2026-04-30 12:29 | -24.59217 | -44.68243 | 38107 ft | 434 kts | 231° |
| 2026-04-30 12:29 | -24.63449 | -44.72984 | 38109 ft | 435 kts | 231° |
| 2026-04-30 12:30 | -24.67685 | -44.77728 | 38122 ft | 435 kts | 231° |
| 2026-04-30 12:30 | -24.71926 | -44.82481 | 38097 ft | 435 kts | 231° |
| 2026-04-30 12:31 | -24.76163 | -44.87234 | 38107 ft | 435 kts | 231° |
| 2026-04-30 12:31 | -24.80399 | -44.91992 | 38107 ft | 435 kts | 231° |
| 2026-04-30 12:32 | -24.84635 | -44.96754 | 38109 ft | 435 kts | 231° |
| 2026-04-30 12:32 | -24.88867 | -45.01515 | 38106 ft | 434 kts | 232° |
| 2026-04-30 12:33 | -24.93083 | -45.06264 | 38105 ft | 433 kts | 232° |
| 2026-04-30 12:33 | -24.97259 | -45.10974 | 38104 ft | 432 kts | 232° |
| 2026-04-30 12:34 | -25.01455 | -45.15711 | 38107 ft | 431 kts | 232° |
| 2026-04-30 12:34 | -25.05646 | -45.20447 | 38123 ft | 431 kts | 232° |
| 2026-04-30 12:35 | -25.09827 | -45.25177 | 38109 ft | 430 kts | 232° |
| 2026-04-30 12:35 | -25.14000 | -45.29902 | 38125 ft | 429 kts | 232° |
| 2026-04-30 12:36 | -25.18161 | -45.34619 | 38111 ft | 428 kts | 232° |
| 2026-04-30 12:36 | -25.22308 | -45.39325 | 38125 ft | 427 kts | 232° |
| 2026-04-30 12:37 | -25.26443 | -45.44021 | 38098 ft | 425 kts | 232° |
| 2026-04-30 12:37 | -25.30559 | -45.48702 | 38095 ft | 424 kts | 232° |
| 2026-04-30 12:38 | -25.34665 | -45.53376 | 38098 ft | 423 kts | 232° |
| 2026-04-30 12:38 | -25.38765 | -45.58049 | 38116 ft | 423 kts | 232° |
| 2026-04-30 12:39 | -25.42862 | -45.62724 | 38107 ft | 423 kts | 232° |
| 2026-04-30 12:39 | -25.46959 | -45.67403 | 38110 ft | 423 kts | 232° |
| 2026-04-30 12:40 | -25.51056 | -45.72085 | 38110 ft | 423 kts | 232° |
| 2026-04-30 12:40 | -25.55151 | -45.76773 | 38121 ft | 424 kts | 232° |
| 2026-04-30 12:41 | -25.59246 | -45.81463 | 38118 ft | 423 kts | 232° |
| 2026-04-30 12:41 | -25.63336 | -45.86154 | 38106 ft | 423 kts | 232° |
| 2026-04-30 12:42 | -25.67414 | -45.90834 | 38109 ft | 422 kts | 232° |
| 2026-04-30 12:42 | -25.71483 | -45.95509 | 38108 ft | 421 kts | 232° |
| 2026-04-30 12:43 | -25.75518 | -46.00150 | 38116 ft | 420 kts | 233° |
| 2026-04-30 12:43 | -25.79571 | -46.04817 | 38108 ft | 420 kts | 233° |
| 2026-04-30 12:44 | -25.83643 | -46.09512 | 38109 ft | 419 kts | 233° |
| 2026-04-30 12:44 | -25.87657 | -46.14146 | 38109 ft | 419 kts | 233° |
| 2026-04-30 12:45 | -25.91692 | -46.18808 | 38115 ft | 419 kts | 233° |
| 2026-04-30 12:45 | -25.95727 | -46.23476 | 38107 ft | 419 kts | 233° |
| 2026-04-30 12:46 | -25.99757 | -46.28143 | 38110 ft | 418 kts | 233° |
| 2026-04-30 12:46 | -26.03785 | -46.32811 | 38115 ft | 418 kts | 233° |
| 2026-04-30 12:47 | -26.07813 | -46.37485 | 38122 ft | 418 kts | 233° |
| 2026-04-30 12:47 | -26.11837 | -46.42160 | 38111 ft | 418 kts | 233° |
| 2026-04-30 12:48 | -26.15860 | -46.46837 | 38108 ft | 418 kts | 233° |
| 2026-04-30 12:48 | -26.19879 | -46.51516 | 38115 ft | 418 kts | 233° |
| 2026-04-30 12:49 | -26.23894 | -46.56195 | 38114 ft | 418 kts | 233° |
| 2026-04-30 12:49 | -26.27906 | -46.60877 | 38114 ft | 417 kts | 233° |
| 2026-04-30 12:50 | -26.31886 | -46.65524 | 38135 ft | 417 kts | 233° |
| 2026-04-30 12:50 | -26.35880 | -46.70195 | 38111 ft | 416 kts | 233° |
| 2026-04-30 12:51 | -26.39871 | -46.74864 | 38109 ft | 415 kts | 233° |
| 2026-04-30 12:51 | -26.43853 | -46.79525 | 38110 ft | 415 kts | 233° |
| 2026-04-30 12:52 | -26.47829 | -46.84183 | 38110 ft | 414 kts | 233° |
| 2026-04-30 12:52 | -26.51801 | -46.88843 | 38110 ft | 414 kts | 233° |
| 2026-04-30 12:53 | -26.55773 | -46.93509 | 38109 ft | 414 kts | 233° |
| 2026-04-30 12:53 | -26.59741 | -46.98174 | 38121 ft | 414 kts | 233° |
| 2026-04-30 12:54 | -26.63684 | -47.02866 | 38113 ft | 414 kts | 234° |
| 2026-04-30 12:54 | -26.67609 | -47.07575 | 38114 ft | 414 kts | 234° |
| 2026-04-30 12:55 | -26.71536 | -47.12281 | 38139 ft | 414 kts | 234° |
| 2026-04-30 12:55 | -26.75480 | -47.16982 | 38123 ft | 415 kts | 234° |
| 2026-04-30 12:56 | -26.79441 | -47.21679 | 38118 ft | 415 kts | 234° |
| 2026-04-30 12:56 | -26.83397 | -47.26382 | 38113 ft | 415 kts | 234° |
| 2026-04-30 12:57 | -26.87350 | -47.31088 | 38116 ft | 415 kts | 234° |
| 2026-04-30 12:57 | -26.91296 | -47.35798 | 38117 ft | 414 kts | 234° |
| 2026-04-30 12:58 | -26.95229 | -47.40512 | 38121 ft | 414 kts | 234° |
| 2026-04-30 12:58 | -26.99133 | -47.45200 | 38115 ft | 414 kts | 234° |
| 2026-04-30 12:59 | -27.03055 | -47.49912 | 38116 ft | 413 kts | 234° |
| 2026-04-30 12:59 | -27.06977 | -47.54629 | 38116 ft | 413 kts | 234° |
| 2026-04-30 13:00 | -27.10892 | -47.59342 | 38129 ft | 413 kts | 234° |
| 2026-04-30 13:00 | -27.14809 | -47.64065 | 38130 ft | 414 kts | 234° |
| 2026-04-30 13:01 | -27.18729 | -47.68795 | 38123 ft | 414 kts | 234° |
| 2026-04-30 13:01 | -27.22650 | -47.73532 | 38120 ft | 414 kts | 234° |
| 2026-04-30 13:02 | -27.26570 | -47.78272 | 38127 ft | 414 kts | 234° |
| 2026-04-30 13:02 | -27.30489 | -47.83017 | 38127 ft | 414 kts | 234° |
| 2026-04-30 13:03 | -27.34409 | -47.87768 | 38125 ft | 414 kts | 234° |
| 2026-04-30 13:03 | -27.38329 | -47.92525 | 38128 ft | 414 kts | 234° |
| 2026-04-30 13:04 | -27.42234 | -47.97291 | 38131 ft | 414 kts | 234° |
| 2026-04-30 13:04 | -27.46127 | -48.02068 | 38141 ft | 414 kts | 234° |
| 2026-04-30 13:05 | -27.50022 | -48.06853 | 38129 ft | 414 kts | 234° |
| 2026-04-30 13:06 | -27.55866 | -48.14038 | 38140 ft | 415 kts | 234° |
| 2026-04-30 13:06 | -27.59765 | -48.18838 | 38133 ft | 416 kts | 234° |
| 2026-04-30 13:07 | -27.63671 | -48.23651 | 38143 ft | 416 kts | 234° |
| 2026-04-30 13:07 | -27.67551 | -48.28438 | 38132 ft | 417 kts | 234° |
| 2026-04-30 13:08 | -27.71461 | -48.33266 | 38131 ft | 417 kts | 234° |
| 2026-04-30 13:08 | -27.75371 | -48.38094 | 38132 ft | 417 kts | 234° |
| 2026-04-30 13:09 | -27.79278 | -48.42926 | 38137 ft | 417 kts | 234° |
| 2026-04-30 13:09 | -27.83184 | -48.47763 | 38127 ft | 417 kts | 234° |
| 2026-04-30 13:10 | -27.87086 | -48.52602 | 38138 ft | 417 kts | 234° |
| 2026-04-30 13:10 | -27.90986 | -48.57443 | 38128 ft | 416 kts | 234° |
| 2026-04-30 13:11 | -27.94886 | -48.62291 | 38144 ft | 417 kts | 234° |
| 2026-04-30 13:11 | -27.98135 | -48.66332 | 38158 ft | 418 kts | 234° |
| 2026-04-30 13:12 | -28.02053 | -48.71214 | 38150 ft | 420 kts | 234° |
| 2026-04-30 13:12 | -28.06615 | -48.76902 | 38154 ft | 420 kts | 234° |
| 2026-04-30 13:13 | -28.11870 | -48.83465 | 38151 ft | 421 kts | 234° |
| 2026-04-30 13:14 | -28.17750 | -48.90820 | 38154 ft | 419 kts | 234° |
| 2026-04-30 13:14 | -28.23626 | -48.98195 | 38152 ft | 421 kts | 234° |
| 2026-04-30 13:15 | -28.29488 | -49.05610 | 38151 ft | 420 kts | 234° |
| 2026-04-30 13:16 | -28.33421 | -49.10459 | 38172 ft | 420 kts | 234° |
| 2026-04-30 13:16 | -28.37384 | -49.15347 | 38159 ft | 421 kts | 233° |
| 2026-04-30 13:17 | -28.43322 | -49.22702 | 38157 ft | 422 kts | 233° |
| 2026-04-30 13:18 | -28.49264 | -49.30089 | 38157 ft | 423 kts | 234° |
| 2026-04-30 13:18 | -28.55202 | -49.37512 | 38161 ft | 423 kts | 234° |
| 2026-04-30 13:19 | -28.59160 | -49.42465 | 38160 ft | 423 kts | 234° |
| 2026-04-30 13:19 | -28.63114 | -49.47419 | 38155 ft | 423 kts | 234° |
| 2026-04-30 13:20 | -28.67071 | -49.52384 | 38152 ft | 423 kts | 234° |
| 2026-04-30 13:20 | -28.71022 | -49.57347 | 38159 ft | 423 kts | 234° |
| 2026-04-30 13:21 | -28.74974 | -49.62318 | 38172 ft | 423 kts | 233° |
| 2026-04-30 13:22 | -28.80912 | -49.69798 | 38152 ft | 425 kts | 233° |
| 2026-04-30 13:22 | -28.86856 | -49.77299 | 38159 ft | 426 kts | 233° |
| 2026-04-30 13:23 | -28.92870 | -49.84789 | 38150 ft | 428 kts | 232° |
| 2026-04-30 13:24 | -29.01135 | -49.94582 | 38157 ft | 428 kts | 232° |
| 2026-04-30 13:25 | -29.09363 | -50.04417 | 38154 ft | 428 kts | 232° |
| 2026-04-30 13:26 | -29.19615 | -50.16731 | 38166 ft | 429 kts | 232° |
| 2026-04-30 13:28 | -29.29919 | -50.29140 | 38151 ft | 430 kts | 232° |
| 2026-04-30 13:28 | -29.36101 | -50.36604 | 38160 ft | 430 kts | 232° |
| 2026-04-30 13:29 | -29.44339 | -50.46574 | 38155 ft | 431 kts | 232° |
| 2026-04-30 13:31 | -29.54619 | -50.59095 | 38168 ft | 431 kts | 233° |
| 2026-04-30 13:32 | -29.64646 | -50.71855 | 38141 ft | 430 kts | 233° |
| 2026-04-30 13:33 | -29.72671 | -50.82064 | 38150 ft | 430 kts | 233° |
| 2026-04-30 13:34 | -29.78696 | -50.89741 | 38152 ft | 431 kts | 233° |
| 2026-04-30 13:35 | -29.86727 | -50.99999 | 38162 ft | 432 kts | 233° |
| 2026-04-30 13:36 | -29.94766 | -51.10293 | 38156 ft | 432 kts | 233° |
| 2026-04-30 13:36 | -30.00291 | -51.18342 | 38136 ft | 425 kts | 243° |
| 2026-04-30 13:37 | -30.04348 | -51.27357 | 38129 ft | 422 kts | 248° |
| 2026-04-30 13:38 | -30.08254 | -51.36463 | 38144 ft | 422 kts | 248° |
| 2026-04-30 13:39 | -30.13496 | -51.48631 | 38145 ft | 423 kts | 248° |
| 2026-04-30 13:40 | -30.17429 | -51.57769 | 38169 ft | 424 kts | 248° |
| 2026-04-30 13:40 | -30.20051 | -51.63877 | 38152 ft | 424 kts | 248° |
| 2026-04-30 13:41 | -30.22671 | -51.69989 | 38145 ft | 424 kts | 248° |
| 2026-04-30 13:41 | -30.25287 | -51.76101 | 38145 ft | 424 kts | 248° |
| 2026-04-30 13:42 | -30.27898 | -51.82215 | 38158 ft | 424 kts | 248° |
| 2026-04-30 13:42 | -30.31811 | -51.91392 | 38152 ft | 424 kts | 248° |
| 2026-04-30 13:43 | -30.34416 | -51.97515 | 38139 ft | 424 kts | 248° |
| 2026-04-30 13:43 | -30.37015 | -52.03633 | 38146 ft | 423 kts | 248° |
| 2026-04-30 13:44 | -30.39611 | -52.09754 | 38145 ft | 423 kts | 248° |
| 2026-04-30 13:44 | -30.42204 | -52.15877 | 38143 ft | 423 kts | 248° |
| 2026-04-30 13:45 | -30.46064 | -52.25066 | 38140 ft | 423 kts | 248° |
| 2026-04-30 13:46 | -30.48626 | -52.31206 | 38148 ft | 423 kts | 248° |
| 2026-04-30 13:46 | -30.51189 | -52.37349 | 38140 ft | 423 kts | 248° |
| 2026-04-30 13:47 | -30.53769 | -52.43491 | 38139 ft | 424 kts | 248° |
| 2026-04-30 13:47 | -30.56339 | -52.49600 | 38146 ft | 424 kts | 248° |
| 2026-04-30 13:48 | -30.58921 | -52.55755 | 38154 ft | 425 kts | 249° |
| 2026-04-30 13:48 | -30.61503 | -52.61925 | 38146 ft | 425 kts | 249° |
| 2026-04-30 13:49 | -30.64082 | -52.68097 | 38141 ft | 425 kts | 249° |
| 2026-04-30 13:49 | -30.66661 | -52.74278 | 38134 ft | 425 kts | 249° |
| 2026-04-30 13:50 | -30.69236 | -52.80461 | 38130 ft | 425 kts | 249° |
| 2026-04-30 13:50 | -30.73111 | -52.89740 | 38153 ft | 425 kts | 249° |
| 2026-04-30 13:51 | -30.75694 | -52.95927 | 38132 ft | 425 kts | 249° |
| 2026-04-30 13:51 | -30.78270 | -53.02110 | 38146 ft | 425 kts | 249° |
| 2026-04-30 13:52 | -30.80843 | -53.08299 | 38143 ft | 425 kts | 249° |
| 2026-04-30 13:52 | -30.83412 | -53.14489 | 38139 ft | 425 kts | 249° |
| 2026-04-30 13:53 | -30.85978 | -53.20683 | 38142 ft | 425 kts | 249° |
| 2026-04-30 13:53 | -30.88109 | -53.25833 | 38149 ft | 425 kts | 249° |
| 2026-04-30 13:54 | -30.91097 | -53.33079 | 38139 ft | 425 kts | 249° |
| 2026-04-30 13:54 | -30.93646 | -53.39280 | 38140 ft | 425 kts | 249° |
| 2026-04-30 13:55 | -30.96193 | -53.45489 | 38144 ft | 425 kts | 249° |
| 2026-04-30 13:55 | -30.98739 | -53.51703 | 38136 ft | 425 kts | 249° |
| 2026-04-30 13:56 | -31.01279 | -53.57914 | 38136 ft | 425 kts | 249° |
| 2026-04-30 13:56 | -31.03818 | -53.64131 | 38135 ft | 424 kts | 249° |
| 2026-04-30 13:57 | -31.06351 | -53.70347 | 38130 ft | 424 kts | 249° |
| 2026-04-30 13:57 | -31.08881 | -53.76562 | 38139 ft | 424 kts | 249° |
| 2026-04-30 13:58 | -31.12673 | -53.85900 | 38130 ft | 425 kts | 250° |
| 2026-04-30 13:59 | -31.14769 | -53.91074 | 38132 ft | 424 kts | 250° |
| 2026-04-30 13:59 | -31.17699 | -53.98316 | 38129 ft | 424 kts | 250° |
| 2026-04-30 14:00 | -31.20215 | -54.04547 | 38131 ft | 424 kts | 250° |
| 2026-04-30 14:00 | -31.23578 | -54.12891 | 38134 ft | 424 kts | 250° |
| 2026-04-30 14:01 | -31.26086 | -54.19128 | 38129 ft | 424 kts | 250° |
| 2026-04-30 14:01 | -31.28593 | -54.25372 | 38143 ft | 424 kts | 250° |
| 2026-04-30 14:02 | -31.31098 | -54.31622 | 38127 ft | 424 kts | 250° |
| 2026-04-30 14:02 | -31.33599 | -54.37874 | 38125 ft | 424 kts | 250° |
| 2026-04-30 14:03 | -31.36094 | -54.44122 | 38127 ft | 424 kts | 250° |
| 2026-04-30 14:03 | -31.38586 | -54.50375 | 38134 ft | 424 kts | 250° |
| 2026-04-30 14:04 | -31.41059 | -54.56587 | 38125 ft | 424 kts | 250° |
| 2026-04-30 14:04 | -31.43862 | -54.62689 | 38118 ft | 431 kts | 241° |
| 2026-04-30 14:05 | -31.47618 | -54.68211 | 38129 ft | 438 kts | 233° |
| 2026-04-30 14:05 | -31.52083 | -54.73126 | 38130 ft | 442 kts | 229° |
| 2026-04-30 14:06 | -31.58923 | -54.80374 | 38125 ft | 442 kts | 229° |
| 2026-04-30 14:07 | -31.65718 | -54.87666 | 38116 ft | 441 kts | 230° |
| 2026-04-30 14:08 | -31.72479 | -54.94978 | 38110 ft | 441 kts | 230° |
| 2026-04-30 14:08 | -31.79234 | -55.02300 | 38129 ft | 440 kts | 230° |
| 2026-04-30 14:09 | -31.83735 | -55.07187 | 38116 ft | 440 kts | 230° |
| 2026-04-30 14:10 | -31.90481 | -55.14522 | 38122 ft | 440 kts | 230° |
| 2026-04-30 14:10 | -31.94973 | -55.19415 | 38119 ft | 440 kts | 230° |
| 2026-04-30 14:11 | -31.99461 | -55.24311 | 38135 ft | 440 kts | 230° |
| 2026-04-30 14:11 | -32.03956 | -55.29220 | 38126 ft | 440 kts | 230° |
| 2026-04-30 14:12 | -32.08443 | -55.34128 | 38116 ft | 440 kts | 230° |
| 2026-04-30 14:12 | -32.12929 | -55.39042 | 38117 ft | 440 kts | 230° |
| 2026-04-30 14:13 | -32.17410 | -55.43957 | 38115 ft | 439 kts | 230° |
| 2026-04-30 14:13 | -32.21853 | -55.48838 | 38115 ft | 439 kts | 230° |
| 2026-04-30 14:14 | -32.26324 | -55.53756 | 38125 ft | 439 kts | 230° |
| 2026-04-30 14:14 | -32.30797 | -55.58684 | 38113 ft | 440 kts | 230° |
| 2026-04-30 14:15 | -32.35269 | -55.63618 | 38120 ft | 440 kts | 230° |
| 2026-04-30 14:15 | -32.39741 | -55.68557 | 38111 ft | 440 kts | 230° |
| 2026-04-30 14:16 | -32.44208 | -55.73498 | 38111 ft | 439 kts | 230° |
| 2026-04-30 14:16 | -32.48670 | -55.78442 | 38116 ft | 439 kts | 231° |
| 2026-04-30 14:17 | -32.53127 | -55.83386 | 38108 ft | 439 kts | 231° |
| 2026-04-30 14:17 | -32.57584 | -55.88338 | 38118 ft | 439 kts | 231° |
| 2026-04-30 14:18 | -32.62034 | -55.93290 | 38110 ft | 439 kts | 231° |
| 2026-04-30 14:18 | -32.68708 | -56.00729 | 38118 ft | 439 kts | 231° |
| 2026-04-30 14:19 | -32.75369 | -56.08169 | 38112 ft | 438 kts | 231° |
| 2026-04-30 14:20 | -32.79802 | -56.13130 | 38110 ft | 437 kts | 231° |
| 2026-04-30 14:20 | -32.86439 | -56.20571 | 38108 ft | 437 kts | 231° |
| 2026-04-30 14:21 | -32.90855 | -56.25531 | 38109 ft | 436 kts | 231° |
| 2026-04-30 14:22 | -32.97471 | -56.32975 | 38115 ft | 437 kts | 231° |
| 2026-04-30 14:22 | -33.04050 | -56.40423 | 38109 ft | 437 kts | 231° |
| 2026-04-30 14:23 | -33.12833 | -56.50411 | 38105 ft | 436 kts | 231° |
| 2026-04-30 14:24 | -33.19410 | -56.57903 | 38118 ft | 435 kts | 231° |
| 2026-04-30 14:25 | -33.28168 | -56.67897 | 38103 ft | 435 kts | 231° |
| 2026-04-30 14:26 | -33.34724 | -56.75400 | 38124 ft | 435 kts | 231° |
| 2026-04-30 14:27 | -33.41272 | -56.82911 | 38103 ft | 434 kts | 231° |
| 2026-04-30 14:27 | -33.45628 | -56.87915 | 38109 ft | 434 kts | 232° |
| 2026-04-30 14:28 | -33.52151 | -56.95425 | 38104 ft | 433 kts | 232° |
| 2026-04-30 14:28 | -33.56492 | -57.00432 | 38103 ft | 433 kts | 232° |
| 2026-04-30 14:29 | -33.64379 | -57.09538 | 37631 ft | 423 kts | 232° |
| 2026-04-30 14:30 | -33.71351 | -57.17616 | 35927 ft | 411 kts | 232° |
| 2026-04-30 14:31 | -33.75439 | -57.22364 | 34900 ft | 406 kts | 232° |
| 2026-04-30 14:31 | -33.79438 | -57.27015 | 33897 ft | 400 kts | 232° |
| 2026-04-30 14:31 | -33.81429 | -57.29333 | 33462 ft | 395 kts | 232° |
| 2026-04-30 14:32 | -33.85258 | -57.33786 | 33123 ft | 372 kts | 232° |
| 2026-04-30 14:32 | -33.87094 | -57.35925 | 32963 ft | 362 kts | 232° |
| 2026-04-30 14:32 | -33.88878 | -57.38004 | 32808 ft | 352 kts | 233° |
| 2026-04-30 14:33 | -33.90390 | -57.40184 | 32539 ft | 330 kts | 247° |
| 2026-04-30 14:33 | -33.91890 | -57.45204 | 32050 ft | 317 kts | 262° |
| 2026-04-30 14:33 | -33.92202 | -57.47826 | 31814 ft | 317 kts | 268° |
| 2026-04-30 14:34 | -33.92186 | -57.50483 | 31562 ft | 318 kts | 276° |
| 2026-04-30 14:34 | -33.91749 | -57.53087 | 31318 ft | 318 kts | 286° |
| 2026-04-30 14:34 | -33.90856 | -57.55536 | 31077 ft | 322 kts | 296° |
| 2026-04-30 14:34 | -33.89542 | -57.57739 | 30833 ft | 328 kts | 306° |
| 2026-04-30 14:35 | -33.86526 | -57.60682 | 30442 ft | 342 kts | 322° |
| 2026-04-30 14:35 | -33.83544 | -57.62118 | 30116 ft | 357 kts | 337° |
| 2026-04-30 14:35 | -33.81039 | -57.62525 | 29810 ft | 371 kts | 349° |
| 2026-04-30 14:36 | -33.78427 | -57.62237 | 29537 ft | 385 kts | 2° |
| 2026-04-30 14:36 | -33.75833 | -57.61316 | 29272 ft | 394 kts | 12° |
| 2026-04-30 14:36 | -33.73360 | -57.59790 | 28989 ft | 408 kts | 28° |
| 2026-04-30 14:36 | -33.71263 | -57.57476 | 28716 ft | 408 kts | 38° |
| 2026-04-30 14:37 | -33.69290 | -57.55064 | 28479 ft | 402 kts | 38° |
| 2026-04-30 14:37 | -33.67334 | -57.52708 | 28199 ft | 395 kts | 37° |
| 2026-04-30 14:37 | -33.65390 | -57.50421 | 27932 ft | 388 kts | 36° |
| 2026-04-30 14:37 | -33.63462 | -57.48185 | 27669 ft | 383 kts | 36° |
| 2026-04-30 14:38 | -33.61571 | -57.45976 | 27416 ft | 376 kts | 40° |
| 2026-04-30 14:38 | -33.60082 | -57.43368 | 27139 ft | 383 kts | 60° |
| 2026-04-30 14:38 | -33.59188 | -57.40359 | 26887 ft | 384 kts | 74° |
| 2026-04-30 14:38 | -33.58791 | -57.37196 | 26626 ft | 384 kts | 87° |
| 2026-04-30 14:39 | -33.58901 | -57.34017 | 26380 ft | 381 kts | 101° |
| 2026-04-30 14:39 | -33.59576 | -57.30977 | 26126 ft | 374 kts | 117° |
| 2026-04-30 14:39 | -33.60801 | -57.28271 | 25882 ft | 365 kts | 133° |
| 2026-04-30 14:40 | -33.64437 | -57.24367 | 25416 ft | 342 kts | 161° |
| 2026-04-30 14:40 | -33.66578 | -57.23247 | 25193 ft | 330 kts | 173° |
| 2026-04-30 14:40 | -33.68781 | -57.22671 | 24965 ft | 319 kts | 185° |
| 2026-04-30 14:40 | -33.70964 | -57.22613 | 24768 ft | 309 kts | 195° |
| 2026-04-30 14:41 | -33.73050 | -57.23022 | 24540 ft | 300 kts | 204° |
| 2026-04-30 14:41 | -33.75019 | -57.23692 | 24323 ft | 296 kts | 208° |
| 2026-04-30 14:41 | -33.76913 | -57.24606 | 24102 ft | 290 kts | 217° |
| 2026-04-30 14:41 | -33.78516 | -57.25957 | 23867 ft | 276 kts | 231° |
| 2026-04-30 14:42 | -33.79885 | -57.27564 | 23639 ft | 275 kts | 232° |
| 2026-04-30 14:42 | -33.81256 | -57.29171 | 23384 ft | 275 kts | 231° |
| 2026-04-30 14:42 | -33.82628 | -57.30773 | 23132 ft | 275 kts | 231° |
| 2026-04-30 14:42 | -33.84000 | -57.32369 | 22868 ft | 274 kts | 231° |
| 2026-04-30 14:43 | -33.85369 | -57.33956 | 22602 ft | 273 kts | 231° |
| 2026-04-30 14:43 | -33.86732 | -57.35535 | 22348 ft | 271 kts | 231° |
| 2026-04-30 14:43 | -33.88087 | -57.37105 | 22088 ft | 270 kts | 231° |
| 2026-04-30 14:43 | -33.89423 | -57.38670 | 21823 ft | 263 kts | 235° |
| 2026-04-30 14:44 | -33.90332 | -57.40494 | 21564 ft | 250 kts | 254° |
| 2026-04-30 14:44 | -33.90739 | -57.42507 | 21325 ft | 246 kts | 264° |
| 2026-04-30 14:44 | -33.90803 | -57.44555 | 21069 ft | 245 kts | 274° |
| 2026-04-30 14:44 | -33.90487 | -57.46566 | 20823 ft | 246 kts | 284° |
| 2026-04-30 14:45 | -33.89767 | -57.48444 | 20587 ft | 250 kts | 297° |
| 2026-04-30 14:45 | -33.88636 | -57.50062 | 20370 ft | 257 kts | 311° |
| 2026-04-30 14:45 | -33.87128 | -57.51269 | 20260 ft | 268 kts | 326° |
| 2026-04-30 14:45 | -33.85294 | -57.51951 | 20189 ft | 286 kts | 342° |
| 2026-04-30 14:46 | -33.83237 | -57.51960 | 20146 ft | 307 kts | 359° |
| 2026-04-30 14:46 | -33.81132 | -57.51278 | 20104 ft | 322 kts | 15° |
| 2026-04-30 14:46 | -33.79273 | -57.49712 | 20101 ft | 331 kts | 38° |
| 2026-04-30 14:46 | -33.78202 | -57.48412 | 20105 ft | 331 kts | 39° |
| 2026-04-30 14:47 | -33.76026 | -57.45789 | 20093 ft | 331 kts | 38° |
| 2026-04-30 14:47 | -33.74381 | -57.43853 | 20098 ft | 331 kts | 38° |
| 2026-04-30 14:47 | -33.72724 | -57.41924 | 20098 ft | 332 kts | 38° |
| 2026-04-30 14:47 | -33.71110 | -57.39945 | 20084 ft | 334 kts | 49° |
| 2026-04-30 14:48 | -33.70328 | -57.38338 | 20088 ft | 340 kts | 66° |
| 2026-04-30 14:48 | -33.69821 | -57.35572 | 20096 ft | 342 kts | 90° |
| 2026-04-30 14:48 | -33.70113 | -57.32759 | 20103 ft | 339 kts | 112° |
| 2026-04-30 14:48 | -33.71144 | -57.30262 | 20105 ft | 330 kts | 135° |
| 2026-04-30 14:49 | -33.72764 | -57.28396 | 20128 ft | 318 kts | 157° |
| 2026-04-30 14:49 | -33.74726 | -57.27346 | 20105 ft | 303 kts | 177° |
| 2026-04-30 14:49 | -33.76765 | -57.27133 | 20106 ft | 288 kts | 195° |
| 2026-04-30 14:49 | -33.78704 | -57.27573 | 20102 ft | 281 kts | 205° |
| 2026-04-30 14:50 | -33.81864 | -57.29798 | 20099 ft | 254 kts | 231° |
| 2026-04-30 14:50 | -33.83118 | -57.31291 | 20093 ft | 253 kts | 231° |
| 2026-04-30 14:51 | -33.85637 | -57.34250 | 20098 ft | 254 kts | 230° |
| 2026-04-30 14:51 | -33.86907 | -57.35729 | 20095 ft | 254 kts | 230° |
| 2026-04-30 14:51 | -33.89455 | -57.38692 | 20099 ft | 259 kts | 230° |
| 2026-04-30 14:52 | -33.90814 | -57.40290 | 20118 ft | 287 kts | 230° |
| 2026-04-30 14:52 | -33.93924 | -57.43950 | 20105 ft | 328 kts | 229° |
| 2026-04-30 14:52 | -33.95569 | -57.45867 | 20102 ft | 330 kts | 229° |
| 2026-04-30 14:53 | -33.98867 | -57.49709 | 20086 ft | 330 kts | 229° |
| 2026-04-30 14:53 | -34.00514 | -57.51629 | 20086 ft | 329 kts | 229° |
| 2026-04-30 14:54 | -34.03797 | -57.55470 | 20092 ft | 329 kts | 229° |
| 2026-04-30 14:54 | -34.07064 | -57.59301 | 20082 ft | 327 kts | 230° |
| 2026-04-30 14:55 | -34.10313 | -57.63118 | 20085 ft | 325 kts | 230° |
| 2026-04-30 14:55 | -34.11933 | -57.65023 | 20080 ft | 325 kts | 230° |
| 2026-04-30 14:55 | -34.15146 | -57.68803 | 20083 ft | 325 kts | 230° |
| 2026-04-30 14:56 | -34.18384 | -57.72619 | 20083 ft | 325 kts | 230° |
| 2026-04-30 14:56 | -34.21624 | -57.76441 | 20084 ft | 326 kts | 230° |
| 2026-04-30 14:57 | -34.23247 | -57.78357 | 20084 ft | 326 kts | 230° |
| 2026-04-30 14:57 | -34.26492 | -57.82190 | 20086 ft | 326 kts | 230° |
| 2026-04-30 14:58 | -34.29737 | -57.86029 | 20080 ft | 327 kts | 230° |
| 2026-04-30 14:58 | -34.31361 | -57.87952 | 20079 ft | 327 kts | 230° |
| 2026-04-30 14:58 | -34.34613 | -57.91805 | 19906 ft | 330 kts | 230° |
| 2026-04-30 14:59 | -34.37894 | -57.95695 | 19090 ft | 328 kts | 230° |
| 2026-04-30 15:00 | -34.42807 | -58.01290 | 17840 ft | 320 kts | 222° |
| 2026-04-30 15:00 | -34.46577 | -58.04101 | 16975 ft | 317 kts | 214° |
| 2026-04-30 15:01 | -34.50460 | -58.06621 | 15983 ft | 316 kts | 213° |
| 2026-04-30 15:01 | -34.52398 | -58.07874 | 15531 ft | 315 kts | 213° |
| 2026-04-30 15:01 | -34.56241 | -58.10369 | 14657 ft | 312 kts | 212° |
| 2026-04-30 15:02 | -34.58149 | -58.11613 | 14211 ft | 311 kts | 212° |
| 2026-04-30 15:02 | -34.60050 | -58.12856 | 13737 ft | 310 kts | 212° |
| 2026-04-30 15:03 | -34.65680 | -58.16542 | 12608 ft | 297 kts | 212° |
| 2026-04-30 15:03 | -34.69142 | -58.18808 | 12329 ft | 274 kts | 212° |
| 2026-04-30 15:04 | -34.72437 | -58.20974 | 11651 ft | 268 kts | 212° |
| 2026-04-30 15:04 | -34.77351 | -58.24213 | 10429 ft | 267 kts | 212° |
| 2026-04-30 15:05 | -34.82224 | -58.27424 | 9224 ft | 264 kts | 212° |
| 2026-04-30 15:06 | -34.85454 | -58.29555 | 8399 ft | 263 kts | 211° |
| 2026-04-30 15:06 | -34.88705 | -58.31572 | 7510 ft | 263 kts | 199° |
| 2026-04-30 15:07 | -34.92262 | -58.32286 | 6966 ft | 252 kts | 190° |
| 2026-04-30 15:07 | -34.95665 | -58.32775 | 6390 ft | 243 kts | 190° |
| 2026-04-30 15:08 | -34.99019 | -58.33258 | 5632 ft | 242 kts | 190° |
| 2026-04-30 15:08 | -35.03823 | -58.33949 | 5056 ft | 216 kts | 190° |
| 2026-04-30 15:09 | -35.06799 | -58.34368 | 4709 ft | 220 kts | 190° |
| 2026-04-30 15:09 | -35.09617 | -58.35481 | 4169 ft | 212 kts | 231° |
| 2026-04-30 15:10 | -35.09964 | -58.38721 | 3671 ft | 202 kts | 300° |
| 2026-04-30 15:11 | -35.06427 | -58.43912 | 2685 ft | 192 kts | 320° |
| 2026-04-30 15:11 | -35.04009 | -58.45210 | 2337 ft | 190 kts | 340° |
| 2026-04-30 15:12 | -35.00205 | -58.46630 | 2209 ft | 182 kts | 343° |
| 2026-04-30 15:13 | -34.97803 | -58.47473 | 2195 ft | 179 kts | 342° |
| 2026-04-30 15:14 | -34.92968 | -58.49162 | 2004 ft | 178 kts | 344° |
| 2026-04-30 15:14 | -34.89755 | -58.50280 | 1410 ft | 151 kts | 343° |
| 2026-04-30 15:16 | -34.85201 | -58.51876 | 513 ft | 133 kts | 347° |
| 2026-04-30 15:17 | -34.81792 | -58.53060 | 68 ft | 82 kts | 344° |
| 2026-04-30 15:18 | -34.81148 | -58.53521 | 69 ft | 11 kts | 304° |
| 2026-04-30 15:19 | -34.80992 | -58.53592 | 66 ft | 8 kts | 343° |